<?xml version="1.0" encoding="UTF-8" standalone="no" ?>
<gpx xmlns="http://www.topografix.com/GPX/1/1" xmlns:xsi="http://www.w3.org/2001/XMLSchema-instance" xsi:schemaLocation="http://www.topografix.com/GPX/1/1 http://www.topografix.com/GPX/1/1/gpx.xsd" version="1.1" creator="VisuGPX - https://www.visugpx.com">
  <metadata>
    <name>Rando GC Courpière Lezoux</name>
    <desc><![CDATA[Rando vélo route en Auvergne
hub03gc]]></desc>
  </metadata>
  <trk>
    <name><![CDATA[Toaster Course]]></name>
    <trkseg>
      <trkpt lat="46.06596" lon="3.55632">
        <ele>423</ele>
        <time>2012-11-24T00:00:00Z</time>
      </trkpt>
      <trkpt lat="46.06595" lon="3.55632">
        <ele>422</ele>
        <time>2012-11-24T00:00:00Z</time>
      </trkpt>
      <trkpt lat="46.06588" lon="3.55665">
        <ele>422</ele>
        <time>2012-11-24T00:00:03Z</time>
      </trkpt>
      <trkpt lat="46.06564" lon="3.55689">
        <ele>422</ele>
        <time>2012-11-24T00:00:07Z</time>
      </trkpt>
      <trkpt lat="46.06548" lon="3.55693">
        <ele>422</ele>
        <time>2012-11-24T00:00:09Z</time>
      </trkpt>
      <trkpt lat="46.06522" lon="3.55682">
        <ele>422</ele>
        <time>2012-11-24T00:00:12Z</time>
      </trkpt>
      <trkpt lat="46.06514" lon="3.55684">
        <ele>422</ele>
        <time>2012-11-24T00:00:14Z</time>
      </trkpt>
      <trkpt lat="46.06414" lon="3.55735">
        <ele>422</ele>
        <time>2012-11-24T00:00:28Z</time>
      </trkpt>
      <trkpt lat="46.06405" lon="3.55724">
        <ele>421</ele>
        <time>2012-11-24T00:00:29Z</time>
      </trkpt>
      <trkpt lat="46.06392" lon="3.55656">
        <ele>421</ele>
        <time>2012-11-24T00:00:36Z</time>
      </trkpt>
      <trkpt lat="46.06353" lon="3.55564">
        <ele>420</ele>
        <time>2012-11-24T00:00:46Z</time>
      </trkpt>
      <trkpt lat="46.06213" lon="3.55418">
        <ele>424</ele>
        <time>2012-11-24T00:01:19Z</time>
      </trkpt>
      <trkpt lat="46.06153" lon="3.55326">
        <ele>437</ele>
        <time>2012-11-24T00:02:03Z</time>
      </trkpt>
      <trkpt lat="46.06127" lon="3.55268">
        <ele>445</ele>
        <time>2012-11-24T00:02:27Z</time>
      </trkpt>
      <trkpt lat="46.06061" lon="3.55177">
        <ele>456</ele>
        <time>2012-11-24T00:03:06Z</time>
      </trkpt>
      <trkpt lat="46.06041" lon="3.55128">
        <ele>459</ele>
        <time>2012-11-24T00:03:20Z</time>
      </trkpt>
      <trkpt lat="46.06016" lon="3.55023">
        <ele>467</ele>
        <time>2012-11-24T00:03:48Z</time>
      </trkpt>
      <trkpt lat="46.06001" lon="3.54982">
        <ele>470</ele>
        <time>2012-11-24T00:04:01Z</time>
      </trkpt>
      <trkpt lat="46.05994" lon="3.54973">
        <ele>471</ele>
        <time>2012-11-24T00:04:05Z</time>
      </trkpt>
      <trkpt lat="46.05976" lon="3.54964">
        <ele>474</ele>
        <time>2012-11-24T00:04:13Z</time>
      </trkpt>
      <trkpt lat="46.05861" lon="3.54936">
        <ele>488</ele>
        <time>2012-11-24T00:05:02Z</time>
      </trkpt>
      <trkpt lat="46.05844" lon="3.54928">
        <ele>489</ele>
        <time>2012-11-24T00:05:07Z</time>
      </trkpt>
      <trkpt lat="46.05826" lon="3.54905">
        <ele>491</ele>
        <time>2012-11-24T00:05:15Z</time>
      </trkpt>
      <trkpt lat="46.05809" lon="3.5487">
        <ele>493</ele>
        <time>2012-11-24T00:05:24Z</time>
      </trkpt>
      <trkpt lat="46.05779" lon="3.54789">
        <ele>498</ele>
        <time>2012-11-24T00:05:44Z</time>
      </trkpt>
      <trkpt lat="46.0579" lon="3.54732">
        <ele>498</ele>
        <time>2012-11-24T00:05:50Z</time>
      </trkpt>
      <trkpt lat="46.05767" lon="3.54675">
        <ele>498</ele>
        <time>2012-11-24T00:05:57Z</time>
      </trkpt>
      <trkpt lat="46.05761" lon="3.54627">
        <ele>499</ele>
        <time>2012-11-24T00:06:02Z</time>
      </trkpt>
      <trkpt lat="46.0576" lon="3.54601">
        <ele>497</ele>
        <time>2012-11-24T00:06:05Z</time>
      </trkpt>
      <trkpt lat="46.05764" lon="3.54577">
        <ele>496</ele>
        <time>2012-11-24T00:06:07Z</time>
      </trkpt>
      <trkpt lat="46.05785" lon="3.54534">
        <ele>492</ele>
        <time>2012-11-24T00:06:12Z</time>
      </trkpt>
      <trkpt lat="46.05792" lon="3.54507">
        <ele>491</ele>
        <time>2012-11-24T00:06:14Z</time>
      </trkpt>
      <trkpt lat="46.05791" lon="3.5447">
        <ele>489</ele>
        <time>2012-11-24T00:06:18Z</time>
      </trkpt>
      <trkpt lat="46.05784" lon="3.54441">
        <ele>489</ele>
        <time>2012-11-24T00:06:21Z</time>
      </trkpt>
      <trkpt lat="46.05784" lon="3.54441">
        <ele>489</ele>
        <time>2012-11-24T00:06:22Z</time>
      </trkpt>
      <trkpt lat="46.05773" lon="3.544">
        <ele>488</ele>
        <time>2012-11-24T00:06:26Z</time>
      </trkpt>
      <trkpt lat="46.05772" lon="3.54307">
        <ele>486</ele>
        <time>2012-11-24T00:06:34Z</time>
      </trkpt>
      <trkpt lat="46.05765" lon="3.5424">
        <ele>485</ele>
        <time>2012-11-24T00:06:41Z</time>
      </trkpt>
      <trkpt lat="46.05754" lon="3.54202">
        <ele>484</ele>
        <time>2012-11-24T00:06:45Z</time>
      </trkpt>
      <trkpt lat="46.05727" lon="3.54153">
        <ele>484</ele>
        <time>2012-11-24T00:06:50Z</time>
      </trkpt>
      <trkpt lat="46.05641" lon="3.54046">
        <ele>485</ele>
        <time>2012-11-24T00:07:08Z</time>
      </trkpt>
      <trkpt lat="46.05621" lon="3.54034">
        <ele>486</ele>
        <time>2012-11-24T00:07:15Z</time>
      </trkpt>
      <trkpt lat="46.05556" lon="3.5402">
        <ele>491</ele>
        <time>2012-11-24T00:07:36Z</time>
      </trkpt>
      <trkpt lat="46.05543" lon="3.54024">
        <ele>493</ele>
        <time>2012-11-24T00:07:41Z</time>
      </trkpt>
      <trkpt lat="46.05517" lon="3.54048">
        <ele>493</ele>
        <time>2012-11-24T00:07:47Z</time>
      </trkpt>
      <trkpt lat="46.05506" lon="3.54051">
        <ele>494</ele>
        <time>2012-11-24T00:07:49Z</time>
      </trkpt>
      <trkpt lat="46.05492" lon="3.54043">
        <ele>494</ele>
        <time>2012-11-24T00:07:52Z</time>
      </trkpt>
      <trkpt lat="46.05486" lon="3.54031">
        <ele>494</ele>
        <time>2012-11-24T00:07:54Z</time>
      </trkpt>
      <trkpt lat="46.05483" lon="3.54005">
        <ele>495</ele>
        <time>2012-11-24T00:07:58Z</time>
      </trkpt>
      <trkpt lat="46.05517" lon="3.53918">
        <ele>497</ele>
        <time>2012-11-24T00:08:12Z</time>
      </trkpt>
      <trkpt lat="46.05522" lon="3.53884">
        <ele>498</ele>
        <time>2012-11-24T00:08:16Z</time>
      </trkpt>
      <trkpt lat="46.0551" lon="3.53864">
        <ele>499</ele>
        <time>2012-11-24T00:08:23Z</time>
      </trkpt>
      <trkpt lat="46.05483" lon="3.53843">
        <ele>502</ele>
        <time>2012-11-24T00:08:34Z</time>
      </trkpt>
      <trkpt lat="46.05475" lon="3.53831">
        <ele>503</ele>
        <time>2012-11-24T00:08:38Z</time>
      </trkpt>
      <trkpt lat="46.05464" lon="3.53797">
        <ele>506</ele>
        <time>2012-11-24T00:08:47Z</time>
      </trkpt>
      <trkpt lat="46.05457" lon="3.53722">
        <ele>511</ele>
        <time>2012-11-24T00:09:06Z</time>
      </trkpt>
      <trkpt lat="46.05455" lon="3.53628">
        <ele>513</ele>
        <time>2012-11-24T00:09:21Z</time>
      </trkpt>
      <trkpt lat="46.05462" lon="3.53607">
        <ele>513</ele>
        <time>2012-11-24T00:09:24Z</time>
      </trkpt>
      <trkpt lat="46.0547" lon="3.53596">
        <ele>514</ele>
        <time>2012-11-24T00:09:27Z</time>
      </trkpt>
      <trkpt lat="46.05486" lon="3.53591">
        <ele>515</ele>
        <time>2012-11-24T00:09:30Z</time>
      </trkpt>
      <trkpt lat="46.0552" lon="3.53593">
        <ele>515</ele>
        <time>2012-11-24T00:09:35Z</time>
      </trkpt>
      <trkpt lat="46.05529" lon="3.53584">
        <ele>515</ele>
        <time>2012-11-24T00:09:36Z</time>
      </trkpt>
      <trkpt lat="46.05548" lon="3.53543">
        <ele>515</ele>
        <time>2012-11-24T00:09:41Z</time>
      </trkpt>
      <trkpt lat="46.05558" lon="3.53537">
        <ele>515</ele>
        <time>2012-11-24T00:09:42Z</time>
      </trkpt>
      <trkpt lat="46.05582" lon="3.53539">
        <ele>515</ele>
        <time>2012-11-24T00:09:46Z</time>
      </trkpt>
      <trkpt lat="46.05597" lon="3.53532">
        <ele>516</ele>
        <time>2012-11-24T00:09:50Z</time>
      </trkpt>
      <trkpt lat="46.05626" lon="3.535">
        <ele>518</ele>
        <time>2012-11-24T00:10:01Z</time>
      </trkpt>
      <trkpt lat="46.05671" lon="3.5347">
        <ele>522</ele>
        <time>2012-11-24T00:10:16Z</time>
      </trkpt>
      <trkpt lat="46.05763" lon="3.53374">
        <ele>522</ele>
        <time>2012-11-24T00:10:31Z</time>
      </trkpt>
      <trkpt lat="46.05799" lon="3.53355">
        <ele>522</ele>
        <time>2012-11-24T00:10:36Z</time>
      </trkpt>
      <trkpt lat="46.05871" lon="3.53225">
        <ele>522</ele>
        <time>2012-11-24T00:10:52Z</time>
      </trkpt>
      <trkpt lat="46.05878" lon="3.53204">
        <ele>521</ele>
        <time>2012-11-24T00:10:54Z</time>
      </trkpt>
      <trkpt lat="46.05882" lon="3.53168">
        <ele>521</ele>
        <time>2012-11-24T00:10:57Z</time>
      </trkpt>
      <trkpt lat="46.05869" lon="3.53106">
        <ele>520</ele>
        <time>2012-11-24T00:11:03Z</time>
      </trkpt>
      <trkpt lat="46.05869" lon="3.53012">
        <ele>520</ele>
        <time>2012-11-24T00:11:12Z</time>
      </trkpt>
      <trkpt lat="46.05865" lon="3.52949">
        <ele>518</ele>
        <time>2012-11-24T00:11:18Z</time>
      </trkpt>
      <trkpt lat="46.05867" lon="3.52857">
        <ele>517</ele>
        <time>2012-11-24T00:11:26Z</time>
      </trkpt>
      <trkpt lat="46.05855" lon="3.5277">
        <ele>515</ele>
        <time>2012-11-24T00:11:35Z</time>
      </trkpt>
      <trkpt lat="46.05856" lon="3.52729">
        <ele>515</ele>
        <time>2012-11-24T00:11:38Z</time>
      </trkpt>
      <trkpt lat="46.05867" lon="3.52664">
        <ele>514</ele>
        <time>2012-11-24T00:11:45Z</time>
      </trkpt>
      <trkpt lat="46.05872" lon="3.52581">
        <ele>512</ele>
        <time>2012-11-24T00:11:52Z</time>
      </trkpt>
      <trkpt lat="46.05914" lon="3.52492">
        <ele>510</ele>
        <time>2012-11-24T00:12:02Z</time>
      </trkpt>
      <trkpt lat="46.0593" lon="3.52438">
        <ele>508</ele>
        <time>2012-11-24T00:12:08Z</time>
      </trkpt>
      <trkpt lat="46.05963" lon="3.52189">
        <ele>500</ele>
        <time>2012-11-24T00:12:31Z</time>
      </trkpt>
      <trkpt lat="46.05983" lon="3.52121">
        <ele>496</ele>
        <time>2012-11-24T00:12:38Z</time>
      </trkpt>
      <trkpt lat="46.05988" lon="3.5209">
        <ele>495</ele>
        <time>2012-11-24T00:12:41Z</time>
      </trkpt>
      <trkpt lat="46.05986" lon="3.52068">
        <ele>494</ele>
        <time>2012-11-24T00:12:43Z</time>
      </trkpt>
      <trkpt lat="46.05921" lon="3.51903">
        <ele>487</ele>
        <time>2012-11-24T00:13:01Z</time>
      </trkpt>
      <trkpt lat="46.05917" lon="3.5187">
        <ele>485</ele>
        <time>2012-11-24T00:13:04Z</time>
      </trkpt>
      <trkpt lat="46.05923" lon="3.51852">
        <ele>485</ele>
        <time>2012-11-24T00:13:06Z</time>
      </trkpt>
      <trkpt lat="46.05931" lon="3.51845">
        <ele>484</ele>
        <time>2012-11-24T00:13:07Z</time>
      </trkpt>
      <trkpt lat="46.05968" lon="3.51844">
        <ele>482</ele>
        <time>2012-11-24T00:13:12Z</time>
      </trkpt>
      <trkpt lat="46.0599" lon="3.51833">
        <ele>481</ele>
        <time>2012-11-24T00:13:15Z</time>
      </trkpt>
      <trkpt lat="46.05998" lon="3.51817">
        <ele>481</ele>
        <time>2012-11-24T00:13:17Z</time>
      </trkpt>
      <trkpt lat="46.06006" lon="3.51784">
        <ele>480</ele>
        <time>2012-11-24T00:13:20Z</time>
      </trkpt>
      <trkpt lat="46.06012" lon="3.51772">
        <ele>479</ele>
        <time>2012-11-24T00:13:21Z</time>
      </trkpt>
      <trkpt lat="46.06034" lon="3.51754">
        <ele>479</ele>
        <time>2012-11-24T00:13:25Z</time>
      </trkpt>
      <trkpt lat="46.06045" lon="3.51739">
        <ele>478</ele>
        <time>2012-11-24T00:13:27Z</time>
      </trkpt>
      <trkpt lat="46.06057" lon="3.51707">
        <ele>478</ele>
        <time>2012-11-24T00:13:30Z</time>
      </trkpt>
      <trkpt lat="46.06063" lon="3.51592">
        <ele>487</ele>
        <time>2012-11-24T00:14:03Z</time>
      </trkpt>
      <trkpt lat="46.06056" lon="3.51503">
        <ele>494</ele>
        <time>2012-11-24T00:14:28Z</time>
      </trkpt>
      <trkpt lat="46.0605" lon="3.51492">
        <ele>494</ele>
        <time>2012-11-24T00:14:30Z</time>
      </trkpt>
      <trkpt lat="46.06044" lon="3.51458">
        <ele>495</ele>
        <time>2012-11-24T00:14:36Z</time>
      </trkpt>
      <trkpt lat="46.06107" lon="3.51375">
        <ele>500</ele>
        <time>2012-11-24T00:14:58Z</time>
      </trkpt>
      <trkpt lat="46.06177" lon="3.51264">
        <ele>501</ele>
        <time>2012-11-24T00:15:14Z</time>
      </trkpt>
      <trkpt lat="46.06177" lon="3.51249">
        <ele>500</ele>
        <time>2012-11-24T00:15:16Z</time>
      </trkpt>
      <trkpt lat="46.06145" lon="3.51174">
        <ele>498</ele>
        <time>2012-11-24T00:15:24Z</time>
      </trkpt>
      <trkpt lat="46.0613" lon="3.51082">
        <ele>497</ele>
        <time>2012-11-24T00:15:33Z</time>
      </trkpt>
      <trkpt lat="46.06072" lon="3.51078">
        <ele>494</ele>
        <time>2012-11-24T00:15:40Z</time>
      </trkpt>
      <trkpt lat="46.06042" lon="3.5109">
        <ele>492</ele>
        <time>2012-11-24T00:15:44Z</time>
      </trkpt>
      <trkpt lat="46.06001" lon="3.51123">
        <ele>490</ele>
        <time>2012-11-24T00:15:51Z</time>
      </trkpt>
      <trkpt lat="46.05974" lon="3.51118">
        <ele>488</ele>
        <time>2012-11-24T00:15:54Z</time>
      </trkpt>
      <trkpt lat="46.05957" lon="3.51093">
        <ele>486</ele>
        <time>2012-11-24T00:15:58Z</time>
      </trkpt>
      <trkpt lat="46.05946" lon="3.51021">
        <ele>482</ele>
        <time>2012-11-24T00:16:04Z</time>
      </trkpt>
      <trkpt lat="46.05928" lon="3.50993">
        <ele>481</ele>
        <time>2012-11-24T00:16:08Z</time>
      </trkpt>
      <trkpt lat="46.05898" lon="3.50981">
        <ele>479</ele>
        <time>2012-11-24T00:16:12Z</time>
      </trkpt>
      <trkpt lat="46.05844" lon="3.50986">
        <ele>477</ele>
        <time>2012-11-24T00:16:19Z</time>
      </trkpt>
      <trkpt lat="46.05816" lon="3.50969">
        <ele>476</ele>
        <time>2012-11-24T00:16:23Z</time>
      </trkpt>
      <trkpt lat="46.05796" lon="3.50934">
        <ele>473</ele>
        <time>2012-11-24T00:16:28Z</time>
      </trkpt>
      <trkpt lat="46.05754" lon="3.50809">
        <ele>466</ele>
        <time>2012-11-24T00:16:41Z</time>
      </trkpt>
      <trkpt lat="46.05718" lon="3.50726">
        <ele>464</ele>
        <time>2012-11-24T00:16:50Z</time>
      </trkpt>
      <trkpt lat="46.05652" lon="3.50641">
        <ele>463</ele>
        <time>2012-11-24T00:17:01Z</time>
      </trkpt>
      <trkpt lat="46.05608" lon="3.50597">
        <ele>460</ele>
        <time>2012-11-24T00:17:09Z</time>
      </trkpt>
      <trkpt lat="46.05575" lon="3.50571">
        <ele>458</ele>
        <time>2012-11-24T00:17:14Z</time>
      </trkpt>
      <trkpt lat="46.05548" lon="3.50566">
        <ele>456</ele>
        <time>2012-11-24T00:17:17Z</time>
      </trkpt>
      <trkpt lat="46.05486" lon="3.50598">
        <ele>454</ele>
        <time>2012-11-24T00:17:26Z</time>
      </trkpt>
      <trkpt lat="46.05376" lon="3.50637">
        <ele>451</ele>
        <time>2012-11-24T00:17:41Z</time>
      </trkpt>
      <trkpt lat="46.05359" lon="3.50639">
        <ele>451</ele>
        <time>2012-11-24T00:17:43Z</time>
      </trkpt>
      <trkpt lat="46.05338" lon="3.50628">
        <ele>451</ele>
        <time>2012-11-24T00:17:46Z</time>
      </trkpt>
      <trkpt lat="46.05329" lon="3.50604">
        <ele>451</ele>
        <time>2012-11-24T00:17:49Z</time>
      </trkpt>
      <trkpt lat="46.05327" lon="3.50531">
        <ele>451</ele>
        <time>2012-11-24T00:17:56Z</time>
      </trkpt>
      <trkpt lat="46.05334" lon="3.50502">
        <ele>451</ele>
        <time>2012-11-24T00:17:59Z</time>
      </trkpt>
      <trkpt lat="46.05352" lon="3.50458">
        <ele>446</ele>
        <time>2012-11-24T00:18:03Z</time>
      </trkpt>
      <trkpt lat="46.05357" lon="3.50433">
        <ele>444</ele>
        <time>2012-11-24T00:18:06Z</time>
      </trkpt>
      <trkpt lat="46.05368" lon="3.50334">
        <ele>437</ele>
        <time>2012-11-24T00:18:15Z</time>
      </trkpt>
      <trkpt lat="46.0537" lon="3.5026">
        <ele>433</ele>
        <time>2012-11-24T00:18:22Z</time>
      </trkpt>
      <trkpt lat="46.05381" lon="3.50198">
        <ele>431</ele>
        <time>2012-11-24T00:18:28Z</time>
      </trkpt>
      <trkpt lat="46.05381" lon="3.50167">
        <ele>430</ele>
        <time>2012-11-24T00:18:31Z</time>
      </trkpt>
      <trkpt lat="46.05373" lon="3.50152">
        <ele>429</ele>
        <time>2012-11-24T00:18:32Z</time>
      </trkpt>
      <trkpt lat="46.05361" lon="3.50142">
        <ele>428</ele>
        <time>2012-11-24T00:18:34Z</time>
      </trkpt>
      <trkpt lat="46.0526" lon="3.50115">
        <ele>424</ele>
        <time>2012-11-24T00:18:48Z</time>
      </trkpt>
      <trkpt lat="46.05239" lon="3.50097">
        <ele>421</ele>
        <time>2012-11-24T00:18:51Z</time>
      </trkpt>
      <trkpt lat="46.05211" lon="3.50057">
        <ele>418</ele>
        <time>2012-11-24T00:18:57Z</time>
      </trkpt>
      <trkpt lat="46.05191" lon="3.5004">
        <ele>416</ele>
        <time>2012-11-24T00:19:00Z</time>
      </trkpt>
      <trkpt lat="46.05173" lon="3.50035">
        <ele>415</ele>
        <time>2012-11-24T00:19:02Z</time>
      </trkpt>
      <trkpt lat="46.05154" lon="3.5004">
        <ele>415</ele>
        <time>2012-11-24T00:19:06Z</time>
      </trkpt>
      <trkpt lat="46.05088" lon="3.50093">
        <ele>417</ele>
        <time>2012-11-24T00:19:20Z</time>
      </trkpt>
      <trkpt lat="46.05073" lon="3.50097">
        <ele>415</ele>
        <time>2012-11-24T00:19:22Z</time>
      </trkpt>
      <trkpt lat="46.0506" lon="3.50086">
        <ele>414</ele>
        <time>2012-11-24T00:19:24Z</time>
      </trkpt>
      <trkpt lat="46.05038" lon="3.50037">
        <ele>410</ele>
        <time>2012-11-24T00:19:29Z</time>
      </trkpt>
      <trkpt lat="46.05023" lon="3.50023">
        <ele>408</ele>
        <time>2012-11-24T00:19:31Z</time>
      </trkpt>
      <trkpt lat="46.0492" lon="3.49992">
        <ele>398</ele>
        <time>2012-11-24T00:19:45Z</time>
      </trkpt>
      <trkpt lat="46.04907" lon="3.49992">
        <ele>399</ele>
        <time>2012-11-24T00:19:50Z</time>
      </trkpt>
      <trkpt lat="46.04877" lon="3.50009">
        <ele>402</ele>
        <time>2012-11-24T00:20:03Z</time>
      </trkpt>
      <trkpt lat="46.04871" lon="3.50017">
        <ele>403</ele>
        <time>2012-11-24T00:20:06Z</time>
      </trkpt>
      <trkpt lat="46.04857" lon="3.50046">
        <ele>406</ele>
        <time>2012-11-24T00:20:15Z</time>
      </trkpt>
      <trkpt lat="46.04843" lon="3.50097">
        <ele>410</ele>
        <time>2012-11-24T00:20:30Z</time>
      </trkpt>
      <trkpt lat="46.04824" lon="3.50104">
        <ele>407</ele>
        <time>2012-11-24T00:20:32Z</time>
      </trkpt>
      <trkpt lat="46.04809" lon="3.50089">
        <ele>404</ele>
        <time>2012-11-24T00:20:35Z</time>
      </trkpt>
      <trkpt lat="46.0479" lon="3.49996">
        <ele>395</ele>
        <time>2012-11-24T00:20:44Z</time>
      </trkpt>
      <trkpt lat="46.04773" lon="3.49971">
        <ele>392</ele>
        <time>2012-11-24T00:20:47Z</time>
      </trkpt>
      <trkpt lat="46.04758" lon="3.49964">
        <ele>391</ele>
        <time>2012-11-24T00:20:49Z</time>
      </trkpt>
      <trkpt lat="46.04701" lon="3.49969">
        <ele>391</ele>
        <time>2012-11-24T00:20:57Z</time>
      </trkpt>
      <trkpt lat="46.0466" lon="3.49993">
        <ele>391</ele>
        <time>2012-11-24T00:21:03Z</time>
      </trkpt>
      <trkpt lat="46.04639" lon="3.49991">
        <ele>388</ele>
        <time>2012-11-24T00:21:05Z</time>
      </trkpt>
      <trkpt lat="46.04628" lon="3.49979">
        <ele>386</ele>
        <time>2012-11-24T00:21:07Z</time>
      </trkpt>
      <trkpt lat="46.04612" lon="3.49929">
        <ele>381</ele>
        <time>2012-11-24T00:21:12Z</time>
      </trkpt>
      <trkpt lat="46.04566" lon="3.49879">
        <ele>374</ele>
        <time>2012-11-24T00:21:20Z</time>
      </trkpt>
      <trkpt lat="46.04545" lon="3.49863">
        <ele>372</ele>
        <time>2012-11-24T00:21:23Z</time>
      </trkpt>
      <trkpt lat="46.04478" lon="3.49835">
        <ele>367</ele>
        <time>2012-11-24T00:21:33Z</time>
      </trkpt>
      <trkpt lat="46.04454" lon="3.49837">
        <ele>367</ele>
        <time>2012-11-24T00:21:38Z</time>
      </trkpt>
      <trkpt lat="46.04431" lon="3.49849">
        <ele>368</ele>
        <time>2012-11-24T00:21:43Z</time>
      </trkpt>
      <trkpt lat="46.04417" lon="3.49871">
        <ele>369</ele>
        <time>2012-11-24T00:21:48Z</time>
      </trkpt>
      <trkpt lat="46.04414" lon="3.4991">
        <ele>370</ele>
        <time>2012-11-24T00:21:54Z</time>
      </trkpt>
      <trkpt lat="46.04407" lon="3.49932">
        <ele>371</ele>
        <time>2012-11-24T00:21:57Z</time>
      </trkpt>
      <trkpt lat="46.04396" lon="3.4994">
        <ele>370</ele>
        <time>2012-11-24T00:21:59Z</time>
      </trkpt>
      <trkpt lat="46.04367" lon="3.49942">
        <ele>368</ele>
        <time>2012-11-24T00:22:03Z</time>
      </trkpt>
      <trkpt lat="46.04339" lon="3.49975">
        <ele>366</ele>
        <time>2012-11-24T00:22:08Z</time>
      </trkpt>
      <trkpt lat="46.04327" lon="3.49981">
        <ele>366</ele>
        <time>2012-11-24T00:22:09Z</time>
      </trkpt>
      <trkpt lat="46.04268" lon="3.49968">
        <ele>363</ele>
        <time>2012-11-24T00:22:17Z</time>
      </trkpt>
      <trkpt lat="46.04249" lon="3.49956">
        <ele>359</ele>
        <time>2012-11-24T00:22:20Z</time>
      </trkpt>
      <trkpt lat="46.0424" lon="3.49938">
        <ele>356</ele>
        <time>2012-11-24T00:22:22Z</time>
      </trkpt>
      <trkpt lat="46.04227" lon="3.49876">
        <ele>349</ele>
        <time>2012-11-24T00:22:28Z</time>
      </trkpt>
      <trkpt lat="46.04211" lon="3.4986">
        <ele>346</ele>
        <time>2012-11-24T00:22:31Z</time>
      </trkpt>
      <trkpt lat="46.04154" lon="3.49846">
        <ele>342</ele>
        <time>2012-11-24T00:22:39Z</time>
      </trkpt>
      <trkpt lat="46.04089" lon="3.49852">
        <ele>339</ele>
        <time>2012-11-24T00:22:47Z</time>
      </trkpt>
      <trkpt lat="46.04066" lon="3.49864">
        <ele>340</ele>
        <time>2012-11-24T00:22:54Z</time>
      </trkpt>
      <trkpt lat="46.04052" lon="3.49882">
        <ele>341</ele>
        <time>2012-11-24T00:22:59Z</time>
      </trkpt>
      <trkpt lat="46.04042" lon="3.49908">
        <ele>342</ele>
        <time>2012-11-24T00:23:05Z</time>
      </trkpt>
      <trkpt lat="46.04036" lon="3.49946">
        <ele>344</ele>
        <time>2012-11-24T00:23:12Z</time>
      </trkpt>
      <trkpt lat="46.0403" lon="3.49961">
        <ele>345</ele>
        <time>2012-11-24T00:23:15Z</time>
      </trkpt>
      <trkpt lat="46.04009" lon="3.49983">
        <ele>342</ele>
        <time>2012-11-24T00:23:19Z</time>
      </trkpt>
      <trkpt lat="46.03996" lon="3.49985">
        <ele>341</ele>
        <time>2012-11-24T00:23:21Z</time>
      </trkpt>
      <trkpt lat="46.03984" lon="3.49975">
        <ele>339</ele>
        <time>2012-11-24T00:23:22Z</time>
      </trkpt>
      <trkpt lat="46.03978" lon="3.4996">
        <ele>338</ele>
        <time>2012-11-24T00:23:24Z</time>
      </trkpt>
      <trkpt lat="46.03976" lon="3.49936">
        <ele>337</ele>
        <time>2012-11-24T00:23:26Z</time>
      </trkpt>
      <trkpt lat="46.03983" lon="3.49871">
        <ele>332</ele>
        <time>2012-11-24T00:23:32Z</time>
      </trkpt>
      <trkpt lat="46.03977" lon="3.49849">
        <ele>331</ele>
        <time>2012-11-24T00:23:35Z</time>
      </trkpt>
      <trkpt lat="46.03934" lon="3.49759">
        <ele>323</ele>
        <time>2012-11-24T00:23:45Z</time>
      </trkpt>
      <trkpt lat="46.03864" lon="3.4964">
        <ele>314</ele>
        <time>2012-11-24T00:23:59Z</time>
      </trkpt>
      <trkpt lat="46.03838" lon="3.49625">
        <ele>313</ele>
        <time>2012-11-24T00:24:03Z</time>
      </trkpt>
      <trkpt lat="46.03827" lon="3.49626">
        <ele>312</ele>
        <time>2012-11-24T00:24:04Z</time>
      </trkpt>
      <trkpt lat="46.03742" lon="3.49666">
        <ele>310</ele>
        <time>2012-11-24T00:24:16Z</time>
      </trkpt>
      <trkpt lat="46.03715" lon="3.49666">
        <ele>309</ele>
        <time>2012-11-24T00:24:20Z</time>
      </trkpt>
      <trkpt lat="46.03698" lon="3.49653">
        <ele>308</ele>
        <time>2012-11-24T00:24:23Z</time>
      </trkpt>
      <trkpt lat="46.0369" lon="3.49634">
        <ele>308</ele>
        <time>2012-11-24T00:24:25Z</time>
      </trkpt>
      <trkpt lat="46.03687" lon="3.49615">
        <ele>308</ele>
        <time>2012-11-24T00:24:26Z</time>
      </trkpt>
      <trkpt lat="46.03694" lon="3.49566">
        <ele>307</ele>
        <time>2012-11-24T00:24:31Z</time>
      </trkpt>
      <trkpt lat="46.0369" lon="3.49548">
        <ele>307</ele>
        <time>2012-11-24T00:24:33Z</time>
      </trkpt>
      <trkpt lat="46.03681" lon="3.49538">
        <ele>307</ele>
        <time>2012-11-24T00:24:36Z</time>
      </trkpt>
      <trkpt lat="46.03665" lon="3.49536">
        <ele>308</ele>
        <time>2012-11-24T00:24:40Z</time>
      </trkpt>
      <trkpt lat="46.03578" lon="3.49578">
        <ele>313</ele>
        <time>2012-11-24T00:25:03Z</time>
      </trkpt>
      <trkpt lat="46.03553" lon="3.49581">
        <ele>313</ele>
        <time>2012-11-24T00:25:07Z</time>
      </trkpt>
      <trkpt lat="46.03533" lon="3.49571">
        <ele>313</ele>
        <time>2012-11-24T00:25:10Z</time>
      </trkpt>
      <trkpt lat="46.03499" lon="3.49529">
        <ele>313</ele>
        <time>2012-11-24T00:25:17Z</time>
      </trkpt>
      <trkpt lat="46.03486" lon="3.49523">
        <ele>314</ele>
        <time>2012-11-24T00:25:20Z</time>
      </trkpt>
      <trkpt lat="46.03383" lon="3.49538">
        <ele>316</ele>
        <time>2012-11-24T00:25:38Z</time>
      </trkpt>
      <trkpt lat="46.03324" lon="3.49582">
        <ele>312</ele>
        <time>2012-11-24T00:25:47Z</time>
      </trkpt>
      <trkpt lat="46.03194" lon="3.4958">
        <ele>307</ele>
        <time>2012-11-24T00:26:04Z</time>
      </trkpt>
      <trkpt lat="46.03089" lon="3.4962">
        <ele>305</ele>
        <time>2012-11-24T00:26:19Z</time>
      </trkpt>
      <trkpt lat="46.03046" lon="3.4963">
        <ele>305</ele>
        <time>2012-11-24T00:26:25Z</time>
      </trkpt>
      <trkpt lat="46.03023" lon="3.49613">
        <ele>305</ele>
        <time>2012-11-24T00:26:28Z</time>
      </trkpt>
      <trkpt lat="46.02988" lon="3.49545">
        <ele>305</ele>
        <time>2012-11-24T00:26:36Z</time>
      </trkpt>
      <trkpt lat="46.02934" lon="3.49497">
        <ele>303</ele>
        <time>2012-11-24T00:26:44Z</time>
      </trkpt>
      <trkpt lat="46.02842" lon="3.49443">
        <ele>301</ele>
        <time>2012-11-24T00:26:58Z</time>
      </trkpt>
      <trkpt lat="46.02769" lon="3.49392">
        <ele>299</ele>
        <time>2012-11-24T00:27:09Z</time>
      </trkpt>
      <trkpt lat="46.0274" lon="3.49386">
        <ele>299</ele>
        <time>2012-11-24T00:27:13Z</time>
      </trkpt>
      <trkpt lat="46.02697" lon="3.49387">
        <ele>298</ele>
        <time>2012-11-24T00:27:18Z</time>
      </trkpt>
      <trkpt lat="46.02679" lon="3.4938">
        <ele>298</ele>
        <time>2012-11-24T00:27:21Z</time>
      </trkpt>
      <trkpt lat="46.02661" lon="3.49369">
        <ele>298</ele>
        <time>2012-11-24T00:27:23Z</time>
      </trkpt>
      <trkpt lat="46.02586" lon="3.49294">
        <ele>297</ele>
        <time>2012-11-24T00:27:36Z</time>
      </trkpt>
      <trkpt lat="46.02561" lon="3.4928">
        <ele>296</ele>
        <time>2012-11-24T00:27:39Z</time>
      </trkpt>
      <trkpt lat="46.02523" lon="3.49274">
        <ele>296</ele>
        <time>2012-11-24T00:27:44Z</time>
      </trkpt>
      <trkpt lat="46.02465" lon="3.49278">
        <ele>296</ele>
        <time>2012-11-24T00:27:52Z</time>
      </trkpt>
      <trkpt lat="46.0231" lon="3.49313">
        <ele>299</ele>
        <time>2012-11-24T00:28:20Z</time>
      </trkpt>
      <trkpt lat="46.02246" lon="3.49336">
        <ele>297</ele>
        <time>2012-11-24T00:28:29Z</time>
      </trkpt>
      <trkpt lat="46.022" lon="3.49346">
        <ele>296</ele>
        <time>2012-11-24T00:28:35Z</time>
      </trkpt>
      <trkpt lat="46.02167" lon="3.49347">
        <ele>296</ele>
        <time>2012-11-24T00:28:41Z</time>
      </trkpt>
      <trkpt lat="46.02125" lon="3.49496">
        <ele>298</ele>
        <time>2012-11-24T00:28:59Z</time>
      </trkpt>
      <trkpt lat="46.02116" lon="3.49594">
        <ele>298</ele>
        <time>2012-11-24T00:29:10Z</time>
      </trkpt>
      <trkpt lat="46.02104" lon="3.49613">
        <ele>298</ele>
        <time>2012-11-24T00:29:13Z</time>
      </trkpt>
      <trkpt lat="46.02087" lon="3.49623">
        <ele>299</ele>
        <time>2012-11-24T00:29:16Z</time>
      </trkpt>
      <trkpt lat="46.0204" lon="3.49488">
        <ele>296</ele>
        <time>2012-11-24T00:29:30Z</time>
      </trkpt>
      <trkpt lat="46.01998" lon="3.494">
        <ele>295</ele>
        <time>2012-11-24T00:29:40Z</time>
      </trkpt>
      <trkpt lat="46.01998" lon="3.494">
        <ele>295</ele>
        <time>2012-11-24T00:29:41Z</time>
      </trkpt>
      <trkpt lat="46.01933" lon="3.49221">
        <ele>291</ele>
        <time>2012-11-24T00:29:59Z</time>
      </trkpt>
      <trkpt lat="46.0191" lon="3.49186">
        <ele>290</ele>
        <time>2012-11-24T00:30:04Z</time>
      </trkpt>
      <trkpt lat="46.01836" lon="3.49103">
        <ele>290</ele>
        <time>2012-11-24T00:30:16Z</time>
      </trkpt>
      <trkpt lat="46.01765" lon="3.49074">
        <ele>288</ele>
        <time>2012-11-24T00:30:26Z</time>
      </trkpt>
      <trkpt lat="46.01695" lon="3.49038">
        <ele>286</ele>
        <time>2012-11-24T00:30:36Z</time>
      </trkpt>
      <trkpt lat="46.01546" lon="3.48953">
        <ele>280</ele>
        <time>2012-11-24T00:30:58Z</time>
      </trkpt>
      <trkpt lat="46.01527" lon="3.48932">
        <ele>280</ele>
        <time>2012-11-24T00:31:01Z</time>
      </trkpt>
      <trkpt lat="46.01487" lon="3.48926">
        <ele>280</ele>
        <time>2012-11-24T00:31:07Z</time>
      </trkpt>
      <trkpt lat="46.01141" lon="3.48843">
        <ele>283</ele>
        <time>2012-11-24T00:32:00Z</time>
      </trkpt>
      <trkpt lat="46.00869" lon="3.48757">
        <ele>279</ele>
        <time>2012-11-24T00:32:37Z</time>
      </trkpt>
      <trkpt lat="46.00857" lon="3.48744">
        <ele>278</ele>
        <time>2012-11-24T00:32:39Z</time>
      </trkpt>
      <trkpt lat="46.00849" lon="3.48721">
        <ele>278</ele>
        <time>2012-11-24T00:32:42Z</time>
      </trkpt>
      <trkpt lat="46.00755" lon="3.48706">
        <ele>278</ele>
        <time>2012-11-24T00:32:54Z</time>
      </trkpt>
      <trkpt lat="46.00596" lon="3.48659">
        <ele>278</ele>
        <time>2012-11-24T00:33:16Z</time>
      </trkpt>
      <trkpt lat="46.00541" lon="3.48648">
        <ele>278</ele>
        <time>2012-11-24T00:33:24Z</time>
      </trkpt>
      <trkpt lat="46.00115" lon="3.48511">
        <ele>279</ele>
        <time>2012-11-24T00:34:24Z</time>
      </trkpt>
      <trkpt lat="46.00066" lon="3.48503">
        <ele>279</ele>
        <time>2012-11-24T00:34:31Z</time>
      </trkpt>
      <trkpt lat="45.98962" lon="3.48641">
        <ele>282</ele>
        <time>2012-11-24T00:37:06Z</time>
      </trkpt>
      <trkpt lat="45.98928" lon="3.48649">
        <ele>282</ele>
        <time>2012-11-24T00:37:13Z</time>
      </trkpt>
      <trkpt lat="45.98853" lon="3.48683">
        <ele>285</ele>
        <time>2012-11-24T00:37:28Z</time>
      </trkpt>
      <trkpt lat="45.98821" lon="3.48688">
        <ele>285</ele>
        <time>2012-11-24T00:37:35Z</time>
      </trkpt>
      <trkpt lat="45.98797" lon="3.48684">
        <ele>286</ele>
        <time>2012-11-24T00:37:40Z</time>
      </trkpt>
      <trkpt lat="45.98773" lon="3.48675">
        <ele>287</ele>
        <time>2012-11-24T00:37:45Z</time>
      </trkpt>
      <trkpt lat="45.9875" lon="3.48657">
        <ele>288</ele>
        <time>2012-11-24T00:37:50Z</time>
      </trkpt>
      <trkpt lat="45.98698" lon="3.48592">
        <ele>284</ele>
        <time>2012-11-24T00:37:59Z</time>
      </trkpt>
      <trkpt lat="45.98666" lon="3.48566">
        <ele>282</ele>
        <time>2012-11-24T00:38:04Z</time>
      </trkpt>
      <trkpt lat="45.98636" lon="3.48557">
        <ele>281</ele>
        <time>2012-11-24T00:38:08Z</time>
      </trkpt>
      <trkpt lat="45.98578" lon="3.48558">
        <ele>281</ele>
        <time>2012-11-24T00:38:16Z</time>
      </trkpt>
      <trkpt lat="45.98535" lon="3.48549">
        <ele>281</ele>
        <time>2012-11-24T00:38:22Z</time>
      </trkpt>
      <trkpt lat="45.9766" lon="3.4822">
        <ele>281</ele>
        <time>2012-11-24T00:40:22Z</time>
      </trkpt>
      <trkpt lat="45.97599" lon="3.48185">
        <ele>281</ele>
        <time>2012-11-24T00:40:33Z</time>
      </trkpt>
      <trkpt lat="45.97345" lon="3.48012">
        <ele>284</ele>
        <time>2012-11-24T00:41:16Z</time>
      </trkpt>
      <trkpt lat="45.97295" lon="3.47999">
        <ele>285</ele>
        <time>2012-11-24T00:41:25Z</time>
      </trkpt>
      <trkpt lat="45.97204" lon="3.48005">
        <ele>287</ele>
        <time>2012-11-24T00:41:42Z</time>
      </trkpt>
      <trkpt lat="45.96974" lon="3.47953">
        <ele>284</ele>
        <time>2012-11-24T00:42:13Z</time>
      </trkpt>
      <trkpt lat="45.96158" lon="3.47471">
        <ele>281</ele>
        <time>2012-11-24T00:44:11Z</time>
      </trkpt>
      <trkpt lat="45.96004" lon="3.47411">
        <ele>283</ele>
        <time>2012-11-24T00:44:37Z</time>
      </trkpt>
      <trkpt lat="45.95986" lon="3.47411">
        <ele>283</ele>
        <time>2012-11-24T00:44:41Z</time>
      </trkpt>
      <trkpt lat="45.95975" lon="3.47419">
        <ele>283</ele>
        <time>2012-11-24T00:44:43Z</time>
      </trkpt>
      <trkpt lat="45.95961" lon="3.4743">
        <ele>284</ele>
        <time>2012-11-24T00:44:46Z</time>
      </trkpt>
      <trkpt lat="45.95961" lon="3.4743">
        <ele>284</ele>
        <time>2012-11-24T00:44:47Z</time>
      </trkpt>
      <trkpt lat="45.95961" lon="3.4743">
        <ele>284</ele>
        <time>2012-11-24T00:44:48Z</time>
      </trkpt>
      <trkpt lat="45.95975" lon="3.47419">
        <ele>283</ele>
        <time>2012-11-24T00:44:50Z</time>
      </trkpt>
      <trkpt lat="45.95968" lon="3.47405">
        <ele>283</ele>
        <time>2012-11-24T00:44:51Z</time>
      </trkpt>
      <trkpt lat="45.95906" lon="3.47358">
        <ele>282</ele>
        <time>2012-11-24T00:45:01Z</time>
      </trkpt>
      <trkpt lat="45.95851" lon="3.47303">
        <ele>281</ele>
        <time>2012-11-24T00:45:10Z</time>
      </trkpt>
      <trkpt lat="45.95742" lon="3.47236">
        <ele>280</ele>
        <time>2012-11-24T00:45:26Z</time>
      </trkpt>
      <trkpt lat="45.9562" lon="3.47136">
        <ele>283</ele>
        <time>2012-11-24T00:45:52Z</time>
      </trkpt>
      <trkpt lat="45.95214" lon="3.46917">
        <ele>281</ele>
        <time>2012-11-24T00:46:50Z</time>
      </trkpt>
      <trkpt lat="45.95177" lon="3.46891">
        <ele>280</ele>
        <time>2012-11-24T00:46:55Z</time>
      </trkpt>
      <trkpt lat="45.95165" lon="3.46866">
        <ele>279</ele>
        <time>2012-11-24T00:46:58Z</time>
      </trkpt>
      <trkpt lat="45.95161" lon="3.46859">
        <ele>279</ele>
        <time>2012-11-24T00:46:59Z</time>
      </trkpt>
      <trkpt lat="45.95138" lon="3.46844">
        <ele>279</ele>
        <time>2012-11-24T00:47:02Z</time>
      </trkpt>
      <trkpt lat="45.95109" lon="3.46784">
        <ele>281</ele>
        <time>2012-11-24T00:47:14Z</time>
      </trkpt>
      <trkpt lat="45.95083" lon="3.46723">
        <ele>283</ele>
        <time>2012-11-24T00:47:25Z</time>
      </trkpt>
      <trkpt lat="45.9505" lon="3.46602">
        <ele>284</ele>
        <time>2012-11-24T00:47:40Z</time>
      </trkpt>
      <trkpt lat="45.95036" lon="3.4657">
        <ele>283</ele>
        <time>2012-11-24T00:47:43Z</time>
      </trkpt>
      <trkpt lat="45.95021" lon="3.4655">
        <ele>283</ele>
        <time>2012-11-24T00:47:46Z</time>
      </trkpt>
      <trkpt lat="45.94924" lon="3.46458">
        <ele>283</ele>
        <time>2012-11-24T00:48:01Z</time>
      </trkpt>
      <trkpt lat="45.94708" lon="3.46136">
        <ele>285</ele>
        <time>2012-11-24T00:48:48Z</time>
      </trkpt>
      <trkpt lat="45.94646" lon="3.46079">
        <ele>286</ele>
        <time>2012-11-24T00:49:00Z</time>
      </trkpt>
      <trkpt lat="45.94552" lon="3.4595">
        <ele>288</ele>
        <time>2012-11-24T00:49:22Z</time>
      </trkpt>
      <trkpt lat="45.94498" lon="3.459">
        <ele>290</ele>
        <time>2012-11-24T00:49:36Z</time>
      </trkpt>
      <trkpt lat="45.9445" lon="3.45875">
        <ele>292</ele>
        <time>2012-11-24T00:49:47Z</time>
      </trkpt>
      <trkpt lat="45.94336" lon="3.45834">
        <ele>300</ele>
        <time>2012-11-24T00:50:22Z</time>
      </trkpt>
      <trkpt lat="45.94284" lon="3.45794">
        <ele>301</ele>
        <time>2012-11-24T00:50:32Z</time>
      </trkpt>
      <trkpt lat="45.94239" lon="3.4575">
        <ele>302</ele>
        <time>2012-11-24T00:50:42Z</time>
      </trkpt>
      <trkpt lat="45.94214" lon="3.45734">
        <ele>302</ele>
        <time>2012-11-24T00:50:48Z</time>
      </trkpt>
      <trkpt lat="45.94077" lon="3.45743">
        <ele>308</ele>
        <time>2012-11-24T00:51:18Z</time>
      </trkpt>
      <trkpt lat="45.94021" lon="3.45738">
        <ele>309</ele>
        <time>2012-11-24T00:51:29Z</time>
      </trkpt>
      <trkpt lat="45.93842" lon="3.45702">
        <ele>314</ele>
        <time>2012-11-24T00:52:04Z</time>
      </trkpt>
      <trkpt lat="45.93805" lon="3.45702">
        <ele>314</ele>
        <time>2012-11-24T00:52:11Z</time>
      </trkpt>
      <trkpt lat="45.9338" lon="3.45901">
        <ele>326</ele>
        <time>2012-11-24T00:53:38Z</time>
      </trkpt>
      <trkpt lat="45.93332" lon="3.4592">
        <ele>327</ele>
        <time>2012-11-24T00:53:47Z</time>
      </trkpt>
      <trkpt lat="45.93129" lon="3.45982">
        <ele>332</ele>
        <time>2012-11-24T00:54:27Z</time>
      </trkpt>
      <trkpt lat="45.93104" lon="3.46005">
        <ele>332</ele>
        <time>2012-11-24T00:54:32Z</time>
      </trkpt>
      <trkpt lat="45.93046" lon="3.46079">
        <ele>334</ele>
        <time>2012-11-24T00:54:46Z</time>
      </trkpt>
      <trkpt lat="45.93019" lon="3.46104">
        <ele>334</ele>
        <time>2012-11-24T00:54:50Z</time>
      </trkpt>
      <trkpt lat="45.92916" lon="3.46155">
        <ele>335</ele>
        <time>2012-11-24T00:55:07Z</time>
      </trkpt>
      <trkpt lat="45.92862" lon="3.46154">
        <ele>336</ele>
        <time>2012-11-24T00:55:18Z</time>
      </trkpt>
      <trkpt lat="45.92862" lon="3.46154">
        <ele>336</ele>
        <time>2012-11-24T00:55:19Z</time>
      </trkpt>
      <trkpt lat="45.92814" lon="3.4615">
        <ele>338</ele>
        <time>2012-11-24T00:55:29Z</time>
      </trkpt>
      <trkpt lat="45.92752" lon="3.46162">
        <ele>338</ele>
        <time>2012-11-24T00:55:38Z</time>
      </trkpt>
      <trkpt lat="45.92693" lon="3.46184">
        <ele>339</ele>
        <time>2012-11-24T00:55:48Z</time>
      </trkpt>
      <trkpt lat="45.92593" lon="3.46232">
        <ele>338</ele>
        <time>2012-11-24T00:56:02Z</time>
      </trkpt>
      <trkpt lat="45.92228" lon="3.46319">
        <ele>336</ele>
        <time>2012-11-24T00:56:51Z</time>
      </trkpt>
      <trkpt lat="45.91786" lon="3.46447">
        <ele>326</ele>
        <time>2012-11-24T00:57:51Z</time>
      </trkpt>
      <trkpt lat="45.916" lon="3.46506">
        <ele>316</ele>
        <time>2012-11-24T00:58:17Z</time>
      </trkpt>
      <trkpt lat="45.91494" lon="3.46527">
        <ele>312</ele>
        <time>2012-11-24T00:58:31Z</time>
      </trkpt>
      <trkpt lat="45.91365" lon="3.46525">
        <ele>305</ele>
        <time>2012-11-24T00:58:48Z</time>
      </trkpt>
      <trkpt lat="45.91331" lon="3.46546">
        <ele>304</ele>
        <time>2012-11-24T00:58:53Z</time>
      </trkpt>
      <trkpt lat="45.91262" lon="3.46616">
        <ele>302</ele>
        <time>2012-11-24T00:59:05Z</time>
      </trkpt>
      <trkpt lat="45.91208" lon="3.46636">
        <ele>300</ele>
        <time>2012-11-24T00:59:12Z</time>
      </trkpt>
      <trkpt lat="45.91161" lon="3.4667">
        <ele>300</ele>
        <time>2012-11-24T00:59:19Z</time>
      </trkpt>
      <trkpt lat="45.91117" lon="3.4669">
        <ele>299</ele>
        <time>2012-11-24T00:59:25Z</time>
      </trkpt>
      <trkpt lat="45.9106" lon="3.46683">
        <ele>298</ele>
        <time>2012-11-24T00:59:33Z</time>
      </trkpt>
      <trkpt lat="45.90919" lon="3.4665">
        <ele>290</ele>
        <time>2012-11-24T00:59:52Z</time>
      </trkpt>
      <trkpt lat="45.90906" lon="3.46643">
        <ele>289</ele>
        <time>2012-11-24T00:59:54Z</time>
      </trkpt>
      <trkpt lat="45.90868" lon="3.46639">
        <ele>289</ele>
        <time>2012-11-24T00:59:59Z</time>
      </trkpt>
      <trkpt lat="45.90701" lon="3.46603">
        <ele>287</ele>
        <time>2012-11-24T01:00:21Z</time>
      </trkpt>
      <trkpt lat="45.90674" lon="3.46601">
        <ele>287</ele>
        <time>2012-11-24T01:00:25Z</time>
      </trkpt>
      <trkpt lat="45.90652" lon="3.46607">
        <ele>287</ele>
        <time>2012-11-24T01:00:28Z</time>
      </trkpt>
      <trkpt lat="45.90629" lon="3.46622">
        <ele>287</ele>
        <time>2012-11-24T01:00:31Z</time>
      </trkpt>
      <trkpt lat="45.90609" lon="3.46642">
        <ele>287</ele>
        <time>2012-11-24T01:00:35Z</time>
      </trkpt>
      <trkpt lat="45.90593" lon="3.46669">
        <ele>287</ele>
        <time>2012-11-24T01:00:39Z</time>
      </trkpt>
      <trkpt lat="45.90583" lon="3.46696">
        <ele>287</ele>
        <time>2012-11-24T01:00:42Z</time>
      </trkpt>
      <trkpt lat="45.90576" lon="3.46739">
        <ele>288</ele>
        <time>2012-11-24T01:00:47Z</time>
      </trkpt>
      <trkpt lat="45.90572" lon="3.46842">
        <ele>289</ele>
        <time>2012-11-24T01:00:59Z</time>
      </trkpt>
      <trkpt lat="45.90565" lon="3.46878">
        <ele>289</ele>
        <time>2012-11-24T01:01:03Z</time>
      </trkpt>
      <trkpt lat="45.90551" lon="3.46915">
        <ele>289</ele>
        <time>2012-11-24T01:01:08Z</time>
      </trkpt>
      <trkpt lat="45.90529" lon="3.46953">
        <ele>290</ele>
        <time>2012-11-24T01:01:14Z</time>
      </trkpt>
      <trkpt lat="45.90464" lon="3.4704">
        <ele>291</ele>
        <time>2012-11-24T01:01:28Z</time>
      </trkpt>
      <trkpt lat="45.90301" lon="3.4725">
        <ele>293</ele>
        <time>2012-11-24T01:02:02Z</time>
      </trkpt>
      <trkpt lat="45.90239" lon="3.47312">
        <ele>292</ele>
        <time>2012-11-24T01:02:12Z</time>
      </trkpt>
      <trkpt lat="45.90012" lon="3.47442">
        <ele>290</ele>
        <time>2012-11-24T01:02:45Z</time>
      </trkpt>
      <trkpt lat="45.89893" lon="3.47518">
        <ele>289</ele>
        <time>2012-11-24T01:03:02Z</time>
      </trkpt>
      <trkpt lat="45.89845" lon="3.47551">
        <ele>290</ele>
        <time>2012-11-24T01:03:13Z</time>
      </trkpt>
      <trkpt lat="45.89764" lon="3.47628">
        <ele>293</ele>
        <time>2012-11-24T01:03:32Z</time>
      </trkpt>
      <trkpt lat="45.89672" lon="3.47748">
        <ele>294</ele>
        <time>2012-11-24T01:03:51Z</time>
      </trkpt>
      <trkpt lat="45.8964" lon="3.478">
        <ele>294</ele>
        <time>2012-11-24T01:03:58Z</time>
      </trkpt>
      <trkpt lat="45.89608" lon="3.47883">
        <ele>295</ele>
        <time>2012-11-24T01:04:08Z</time>
      </trkpt>
      <trkpt lat="45.89584" lon="3.47992">
        <ele>295</ele>
        <time>2012-11-24T01:04:21Z</time>
      </trkpt>
      <trkpt lat="45.8956" lon="3.48039">
        <ele>296</ele>
        <time>2012-11-24T01:04:27Z</time>
      </trkpt>
      <trkpt lat="45.89507" lon="3.48124">
        <ele>296</ele>
        <time>2012-11-24T01:04:39Z</time>
      </trkpt>
      <trkpt lat="45.89493" lon="3.48136">
        <ele>297</ele>
        <time>2012-11-24T01:04:42Z</time>
      </trkpt>
      <trkpt lat="45.89329" lon="3.48146">
        <ele>293</ele>
        <time>2012-11-24T01:05:04Z</time>
      </trkpt>
      <trkpt lat="45.89259" lon="3.48183">
        <ele>292</ele>
        <time>2012-11-24T01:05:14Z</time>
      </trkpt>
      <trkpt lat="45.89237" lon="3.48188">
        <ele>292</ele>
        <time>2012-11-24T01:05:17Z</time>
      </trkpt>
      <trkpt lat="45.89191" lon="3.48186">
        <ele>290</ele>
        <time>2012-11-24T01:05:23Z</time>
      </trkpt>
      <trkpt lat="45.89204" lon="3.48158">
        <ele>290</ele>
        <time>2012-11-24T01:05:26Z</time>
      </trkpt>
      <trkpt lat="45.89204" lon="3.48158">
        <ele>290</ele>
        <time>2012-11-24T01:05:27Z</time>
      </trkpt>
      <trkpt lat="45.89191" lon="3.48186">
        <ele>289</ele>
        <time>2012-11-24T01:05:30Z</time>
      </trkpt>
      <trkpt lat="45.89113" lon="3.48175">
        <ele>289</ele>
        <time>2012-11-24T01:05:41Z</time>
      </trkpt>
      <trkpt lat="45.89095" lon="3.48175">
        <ele>289</ele>
        <time>2012-11-24T01:05:44Z</time>
      </trkpt>
      <trkpt lat="45.89081" lon="3.48181">
        <ele>289</ele>
        <time>2012-11-24T01:05:46Z</time>
      </trkpt>
      <trkpt lat="45.88985" lon="3.48246">
        <ele>291</ele>
        <time>2012-11-24T01:06:04Z</time>
      </trkpt>
      <trkpt lat="45.88835" lon="3.48424">
        <ele>293</ele>
        <time>2012-11-24T01:06:35Z</time>
      </trkpt>
      <trkpt lat="45.88803" lon="3.48456">
        <ele>293</ele>
        <time>2012-11-24T01:06:41Z</time>
      </trkpt>
      <trkpt lat="45.88755" lon="3.48481">
        <ele>293</ele>
        <time>2012-11-24T01:06:48Z</time>
      </trkpt>
      <trkpt lat="45.88612" lon="3.48531">
        <ele>294</ele>
        <time>2012-11-24T01:07:09Z</time>
      </trkpt>
      <trkpt lat="45.88436" lon="3.48573">
        <ele>296</ele>
        <time>2012-11-24T01:07:38Z</time>
      </trkpt>
      <trkpt lat="45.8837" lon="3.48581">
        <ele>296</ele>
        <time>2012-11-24T01:07:48Z</time>
      </trkpt>
      <trkpt lat="45.88329" lon="3.48576">
        <ele>297</ele>
        <time>2012-11-24T01:07:54Z</time>
      </trkpt>
      <trkpt lat="45.87918" lon="3.48478">
        <ele>291</ele>
        <time>2012-11-24T01:08:50Z</time>
      </trkpt>
      <trkpt lat="45.87829" lon="3.48475">
        <ele>291</ele>
        <time>2012-11-24T01:09:02Z</time>
      </trkpt>
      <trkpt lat="45.87761" lon="3.4849">
        <ele>291</ele>
        <time>2012-11-24T01:09:11Z</time>
      </trkpt>
      <trkpt lat="45.87593" lon="3.48539">
        <ele>291</ele>
        <time>2012-11-24T01:09:34Z</time>
      </trkpt>
      <trkpt lat="45.87453" lon="3.48606">
        <ele>293</ele>
        <time>2012-11-24T01:09:59Z</time>
      </trkpt>
      <trkpt lat="45.87354" lon="3.48629">
        <ele>293</ele>
        <time>2012-11-24T01:10:12Z</time>
      </trkpt>
      <trkpt lat="45.873" lon="3.48651">
        <ele>291</ele>
        <time>2012-11-24T01:10:19Z</time>
      </trkpt>
      <trkpt lat="45.8725" lon="3.48678">
        <ele>290</ele>
        <time>2012-11-24T01:10:27Z</time>
      </trkpt>
      <trkpt lat="45.87164" lon="3.48734">
        <ele>292</ele>
        <time>2012-11-24T01:10:44Z</time>
      </trkpt>
      <trkpt lat="45.87127" lon="3.48782">
        <ele>292</ele>
        <time>2012-11-24T01:10:51Z</time>
      </trkpt>
      <trkpt lat="45.87062" lon="3.48894">
        <ele>292</ele>
        <time>2012-11-24T01:11:04Z</time>
      </trkpt>
      <trkpt lat="45.87033" lon="3.48922">
        <ele>291</ele>
        <time>2012-11-24T01:11:09Z</time>
      </trkpt>
      <trkpt lat="45.869" lon="3.4902">
        <ele>291</ele>
        <time>2012-11-24T01:11:29Z</time>
      </trkpt>
      <trkpt lat="45.8685" lon="3.49062">
        <ele>292</ele>
        <time>2012-11-24T01:11:41Z</time>
      </trkpt>
      <trkpt lat="45.86754" lon="3.49188">
        <ele>297</ele>
        <time>2012-11-24T01:12:08Z</time>
      </trkpt>
      <trkpt lat="45.8673" lon="3.49223">
        <ele>297</ele>
        <time>2012-11-24T01:12:14Z</time>
      </trkpt>
      <trkpt lat="45.86691" lon="3.49306">
        <ele>298</ele>
        <time>2012-11-24T01:12:25Z</time>
      </trkpt>
      <trkpt lat="45.86675" lon="3.49366">
        <ele>298</ele>
        <time>2012-11-24T01:12:33Z</time>
      </trkpt>
      <trkpt lat="45.86646" lon="3.49516">
        <ele>301</ele>
        <time>2012-11-24T01:12:52Z</time>
      </trkpt>
      <trkpt lat="45.86636" lon="3.49544">
        <ele>301</ele>
        <time>2012-11-24T01:12:55Z</time>
      </trkpt>
      <trkpt lat="45.86619" lon="3.49566">
        <ele>301</ele>
        <time>2012-11-24T01:12:58Z</time>
      </trkpt>
      <trkpt lat="45.86565" lon="3.49587">
        <ele>301</ele>
        <time>2012-11-24T01:13:06Z</time>
      </trkpt>
      <trkpt lat="45.86548" lon="3.496">
        <ele>301</ele>
        <time>2012-11-24T01:13:09Z</time>
      </trkpt>
      <trkpt lat="45.86539" lon="3.49614">
        <ele>301</ele>
        <time>2012-11-24T01:13:11Z</time>
      </trkpt>
      <trkpt lat="45.86525" lon="3.49666">
        <ele>301</ele>
        <time>2012-11-24T01:13:17Z</time>
      </trkpt>
      <trkpt lat="45.86491" lon="3.49856">
        <ele>303</ele>
        <time>2012-11-24T01:13:38Z</time>
      </trkpt>
      <trkpt lat="45.86487" lon="3.49895">
        <ele>303</ele>
        <time>2012-11-24T01:13:42Z</time>
      </trkpt>
      <trkpt lat="45.86486" lon="3.49998">
        <ele>303</ele>
        <time>2012-11-24T01:13:52Z</time>
      </trkpt>
      <trkpt lat="45.86496" lon="3.50153">
        <ele>305</ele>
        <time>2012-11-24T01:14:11Z</time>
      </trkpt>
      <trkpt lat="45.86497" lon="3.50221">
        <ele>304</ele>
        <time>2012-11-24T01:14:17Z</time>
      </trkpt>
      <trkpt lat="45.86478" lon="3.50498">
        <ele>303</ele>
        <time>2012-11-24T01:14:43Z</time>
      </trkpt>
      <trkpt lat="45.86473" lon="3.50527">
        <ele>303</ele>
        <time>2012-11-24T01:14:46Z</time>
      </trkpt>
      <trkpt lat="45.86465" lon="3.50548">
        <ele>303</ele>
        <time>2012-11-24T01:14:48Z</time>
      </trkpt>
      <trkpt lat="45.86453" lon="3.5054">
        <ele>303</ele>
        <time>2012-11-24T01:14:50Z</time>
      </trkpt>
      <trkpt lat="45.86437" lon="3.50545">
        <ele>303</ele>
        <time>2012-11-24T01:14:52Z</time>
      </trkpt>
      <trkpt lat="45.86433" lon="3.50524">
        <ele>303</ele>
        <time>2012-11-24T01:14:54Z</time>
      </trkpt>
      <trkpt lat="45.86413" lon="3.50498">
        <ele>303</ele>
        <time>2012-11-24T01:14:58Z</time>
      </trkpt>
      <trkpt lat="45.86382" lon="3.50482">
        <ele>303</ele>
        <time>2012-11-24T01:15:02Z</time>
      </trkpt>
      <trkpt lat="45.86105" lon="3.50462">
        <ele>303</ele>
        <time>2012-11-24T01:15:39Z</time>
      </trkpt>
      <trkpt lat="45.86005" lon="3.50526">
        <ele>303</ele>
        <time>2012-11-24T01:15:54Z</time>
      </trkpt>
      <trkpt lat="45.85992" lon="3.50523">
        <ele>303</ele>
        <time>2012-11-24T01:15:56Z</time>
      </trkpt>
      <trkpt lat="45.85976" lon="3.50509">
        <ele>303</ele>
        <time>2012-11-24T01:15:58Z</time>
      </trkpt>
      <trkpt lat="45.85956" lon="3.50511">
        <ele>303</ele>
        <time>2012-11-24T01:16:01Z</time>
      </trkpt>
      <trkpt lat="45.85945" lon="3.50528">
        <ele>303</ele>
        <time>2012-11-24T01:16:03Z</time>
      </trkpt>
      <trkpt lat="45.85929" lon="3.5057">
        <ele>303</ele>
        <time>2012-11-24T01:16:07Z</time>
      </trkpt>
      <trkpt lat="45.85895" lon="3.50604">
        <ele>303</ele>
        <time>2012-11-24T01:16:13Z</time>
      </trkpt>
      <trkpt lat="45.85695" lon="3.50738">
        <ele>307</ele>
        <time>2012-11-24T01:16:52Z</time>
      </trkpt>
      <trkpt lat="45.85643" lon="3.50764">
        <ele>304</ele>
        <time>2012-11-24T01:16:59Z</time>
      </trkpt>
      <trkpt lat="45.85616" lon="3.50755">
        <ele>303</ele>
        <time>2012-11-24T01:17:03Z</time>
      </trkpt>
      <trkpt lat="45.85603" lon="3.50757">
        <ele>303</ele>
        <time>2012-11-24T01:17:05Z</time>
      </trkpt>
      <trkpt lat="45.85588" lon="3.50776">
        <ele>302</ele>
        <time>2012-11-24T01:17:07Z</time>
      </trkpt>
      <trkpt lat="45.85586" lon="3.50797">
        <ele>302</ele>
        <time>2012-11-24T01:17:09Z</time>
      </trkpt>
      <trkpt lat="45.85518" lon="3.50839">
        <ele>302</ele>
        <time>2012-11-24T01:17:19Z</time>
      </trkpt>
      <trkpt lat="45.85432" lon="3.50885">
        <ele>300</ele>
        <time>2012-11-24T01:17:32Z</time>
      </trkpt>
      <trkpt lat="45.8538" lon="3.50902">
        <ele>300</ele>
        <time>2012-11-24T01:17:40Z</time>
      </trkpt>
      <trkpt lat="45.8534" lon="3.50909">
        <ele>301</ele>
        <time>2012-11-24T01:17:46Z</time>
      </trkpt>
      <trkpt lat="45.85281" lon="3.50909">
        <ele>301</ele>
        <time>2012-11-24T01:17:57Z</time>
      </trkpt>
      <trkpt lat="45.85213" lon="3.50898">
        <ele>303</ele>
        <time>2012-11-24T01:18:08Z</time>
      </trkpt>
      <trkpt lat="45.85163" lon="3.5088">
        <ele>301</ele>
        <time>2012-11-24T01:18:15Z</time>
      </trkpt>
      <trkpt lat="45.85158" lon="3.50882">
        <ele>301</ele>
        <time>2012-11-24T01:18:16Z</time>
      </trkpt>
      <trkpt lat="45.85124" lon="3.50861">
        <ele>301</ele>
        <time>2012-11-24T01:18:21Z</time>
      </trkpt>
      <trkpt lat="45.84774" lon="3.50587">
        <ele>293</ele>
        <time>2012-11-24T01:19:14Z</time>
      </trkpt>
      <trkpt lat="45.84702" lon="3.50549">
        <ele>293</ele>
        <time>2012-11-24T01:19:26Z</time>
      </trkpt>
      <trkpt lat="45.84651" lon="3.50535">
        <ele>294</ele>
        <time>2012-11-24T01:19:34Z</time>
      </trkpt>
      <trkpt lat="45.84566" lon="3.50529">
        <ele>294</ele>
        <time>2012-11-24T01:19:45Z</time>
      </trkpt>
      <trkpt lat="45.84488" lon="3.5054">
        <ele>294</ele>
        <time>2012-11-24T01:19:55Z</time>
      </trkpt>
      <trkpt lat="45.84374" lon="3.50568">
        <ele>292</ele>
        <time>2012-11-24T01:20:11Z</time>
      </trkpt>
      <trkpt lat="45.84198" lon="3.50597">
        <ele>291</ele>
        <time>2012-11-24T01:20:35Z</time>
      </trkpt>
      <trkpt lat="45.84188" lon="3.50592">
        <ele>291</ele>
        <time>2012-11-24T01:20:36Z</time>
      </trkpt>
      <trkpt lat="45.84058" lon="3.50602">
        <ele>293</ele>
        <time>2012-11-24T01:20:58Z</time>
      </trkpt>
      <trkpt lat="45.84045" lon="3.5059">
        <ele>293</ele>
        <time>2012-11-24T01:21:01Z</time>
      </trkpt>
      <trkpt lat="45.8403" lon="3.5059">
        <ele>293</ele>
        <time>2012-11-24T01:21:03Z</time>
      </trkpt>
      <trkpt lat="45.84016" lon="3.5061">
        <ele>293</ele>
        <time>2012-11-24T01:21:06Z</time>
      </trkpt>
      <trkpt lat="45.84015" lon="3.50633">
        <ele>293</ele>
        <time>2012-11-24T01:21:08Z</time>
      </trkpt>
      <trkpt lat="45.84023" lon="3.50649">
        <ele>293</ele>
        <time>2012-11-24T01:21:10Z</time>
      </trkpt>
      <trkpt lat="45.84036" lon="3.507">
        <ele>293</ele>
        <time>2012-11-24T01:21:16Z</time>
      </trkpt>
      <trkpt lat="45.84063" lon="3.50747">
        <ele>294</ele>
        <time>2012-11-24T01:21:22Z</time>
      </trkpt>
      <trkpt lat="45.84078" lon="3.50789">
        <ele>294</ele>
        <time>2012-11-24T01:21:27Z</time>
      </trkpt>
      <trkpt lat="45.84128" lon="3.50996">
        <ele>296</ele>
        <time>2012-11-24T01:21:52Z</time>
      </trkpt>
      <trkpt lat="45.84271" lon="3.5155">
        <ele>300</ele>
        <time>2012-11-24T01:22:56Z</time>
      </trkpt>
      <trkpt lat="45.8443" lon="3.51983">
        <ele>303</ele>
        <time>2012-11-24T01:23:49Z</time>
      </trkpt>
      <trkpt lat="45.84285" lon="3.52108">
        <ele>303</ele>
        <time>2012-11-24T01:24:12Z</time>
      </trkpt>
      <trkpt lat="45.84118" lon="3.52231">
        <ele>306</ele>
        <time>2012-11-24T01:24:44Z</time>
      </trkpt>
      <trkpt lat="45.84001" lon="3.52294">
        <ele>315</ele>
        <time>2012-11-24T01:25:22Z</time>
      </trkpt>
      <trkpt lat="45.8398" lon="3.523">
        <ele>315</ele>
        <time>2012-11-24T01:25:27Z</time>
      </trkpt>
      <trkpt lat="45.83885" lon="3.52283">
        <ele>319</ele>
        <time>2012-11-24T01:25:47Z</time>
      </trkpt>
      <trkpt lat="45.83885" lon="3.52283">
        <ele>319</ele>
        <time>2012-11-24T01:25:48Z</time>
      </trkpt>
      <trkpt lat="45.83799" lon="3.52263">
        <ele>321</ele>
        <time>2012-11-24T01:26:07Z</time>
      </trkpt>
      <trkpt lat="45.83768" lon="3.52245">
        <ele>323</ele>
        <time>2012-11-24T01:26:14Z</time>
      </trkpt>
      <trkpt lat="45.83636" lon="3.52088">
        <ele>321</ele>
        <time>2012-11-24T01:26:37Z</time>
      </trkpt>
      <trkpt lat="45.83606" lon="3.52069">
        <ele>321</ele>
        <time>2012-11-24T01:26:43Z</time>
      </trkpt>
      <trkpt lat="45.83562" lon="3.52061">
        <ele>322</ele>
        <time>2012-11-24T01:26:51Z</time>
      </trkpt>
      <trkpt lat="45.83532" lon="3.52063">
        <ele>323</ele>
        <time>2012-11-24T01:26:56Z</time>
      </trkpt>
      <trkpt lat="45.83406" lon="3.52104">
        <ele>324</ele>
        <time>2012-11-24T01:27:16Z</time>
      </trkpt>
      <trkpt lat="45.83376" lon="3.52108">
        <ele>323</ele>
        <time>2012-11-24T01:27:20Z</time>
      </trkpt>
      <trkpt lat="45.83235" lon="3.52077">
        <ele>321</ele>
        <time>2012-11-24T01:27:39Z</time>
      </trkpt>
      <trkpt lat="45.83181" lon="3.52055">
        <ele>321</ele>
        <time>2012-11-24T01:27:47Z</time>
      </trkpt>
      <trkpt lat="45.83166" lon="3.52056">
        <ele>321</ele>
        <time>2012-11-24T01:27:50Z</time>
      </trkpt>
      <trkpt lat="45.83124" lon="3.5208">
        <ele>322</ele>
        <time>2012-11-24T01:27:57Z</time>
      </trkpt>
      <trkpt lat="45.83106" lon="3.52103">
        <ele>322</ele>
        <time>2012-11-24T01:28:00Z</time>
      </trkpt>
      <trkpt lat="45.831" lon="3.52122">
        <ele>322</ele>
        <time>2012-11-24T01:28:02Z</time>
      </trkpt>
      <trkpt lat="45.83097" lon="3.52156">
        <ele>322</ele>
        <time>2012-11-24T01:28:05Z</time>
      </trkpt>
      <trkpt lat="45.83093" lon="3.5226">
        <ele>322</ele>
        <time>2012-11-24T01:28:15Z</time>
      </trkpt>
      <trkpt lat="45.83077" lon="3.52307">
        <ele>324</ele>
        <time>2012-11-24T01:28:26Z</time>
      </trkpt>
      <trkpt lat="45.83042" lon="3.52368">
        <ele>329</ele>
        <time>2012-11-24T01:28:44Z</time>
      </trkpt>
      <trkpt lat="45.83026" lon="3.52382">
        <ele>329</ele>
        <time>2012-11-24T01:28:46Z</time>
      </trkpt>
      <trkpt lat="45.82929" lon="3.52436">
        <ele>329</ele>
        <time>2012-11-24T01:29:00Z</time>
      </trkpt>
      <trkpt lat="45.82783" lon="3.52569">
        <ele>328</ele>
        <time>2012-11-24T01:29:23Z</time>
      </trkpt>
      <trkpt lat="45.82756" lon="3.52606">
        <ele>327</ele>
        <time>2012-11-24T01:29:28Z</time>
      </trkpt>
      <trkpt lat="45.82748" lon="3.52645">
        <ele>326</ele>
        <time>2012-11-24T01:29:32Z</time>
      </trkpt>
      <trkpt lat="45.82748" lon="3.5271">
        <ele>326</ele>
        <time>2012-11-24T01:29:38Z</time>
      </trkpt>
      <trkpt lat="45.82751" lon="3.52812">
        <ele>326</ele>
        <time>2012-11-24T01:29:49Z</time>
      </trkpt>
      <trkpt lat="45.82762" lon="3.52874">
        <ele>327</ele>
        <time>2012-11-24T01:29:56Z</time>
      </trkpt>
      <trkpt lat="45.82763" lon="3.52925">
        <ele>327</ele>
        <time>2012-11-24T01:30:02Z</time>
      </trkpt>
      <trkpt lat="45.82753" lon="3.52974">
        <ele>328</ele>
        <time>2012-11-24T01:30:09Z</time>
      </trkpt>
      <trkpt lat="45.82744" lon="3.52995">
        <ele>328</ele>
        <time>2012-11-24T01:30:12Z</time>
      </trkpt>
      <trkpt lat="45.82732" lon="3.53002">
        <ele>329</ele>
        <time>2012-11-24T01:30:14Z</time>
      </trkpt>
      <trkpt lat="45.82702" lon="3.53003">
        <ele>329</ele>
        <time>2012-11-24T01:30:20Z</time>
      </trkpt>
      <trkpt lat="45.8268" lon="3.5299">
        <ele>330</ele>
        <time>2012-11-24T01:30:24Z</time>
      </trkpt>
      <trkpt lat="45.82665" lon="3.52975">
        <ele>330</ele>
        <time>2012-11-24T01:30:27Z</time>
      </trkpt>
      <trkpt lat="45.82644" lon="3.52945">
        <ele>331</ele>
        <time>2012-11-24T01:30:33Z</time>
      </trkpt>
      <trkpt lat="45.8258" lon="3.52813">
        <ele>331</ele>
        <time>2012-11-24T01:30:48Z</time>
      </trkpt>
      <trkpt lat="45.82565" lon="3.52797">
        <ele>330</ele>
        <time>2012-11-24T01:30:50Z</time>
      </trkpt>
      <trkpt lat="45.82349" lon="3.52648">
        <ele>323</ele>
        <time>2012-11-24T01:31:22Z</time>
      </trkpt>
      <trkpt lat="45.823" lon="3.5263">
        <ele>322</ele>
        <time>2012-11-24T01:31:29Z</time>
      </trkpt>
      <trkpt lat="45.8227" lon="3.5263">
        <ele>321</ele>
        <time>2012-11-24T01:31:33Z</time>
      </trkpt>
      <trkpt lat="45.82233" lon="3.52642">
        <ele>321</ele>
        <time>2012-11-24T01:31:38Z</time>
      </trkpt>
      <trkpt lat="45.82096" lon="3.52704">
        <ele>319</ele>
        <time>2012-11-24T01:31:57Z</time>
      </trkpt>
      <trkpt lat="45.81974" lon="3.52734">
        <ele>316</ele>
        <time>2012-11-24T01:32:14Z</time>
      </trkpt>
      <trkpt lat="45.8191" lon="3.52764">
        <ele>316</ele>
        <time>2012-11-24T01:32:24Z</time>
      </trkpt>
      <trkpt lat="45.81884" lon="3.52788">
        <ele>317</ele>
        <time>2012-11-24T01:32:29Z</time>
      </trkpt>
      <trkpt lat="45.81853" lon="3.52828">
        <ele>318</ele>
        <time>2012-11-24T01:32:38Z</time>
      </trkpt>
      <trkpt lat="45.81814" lon="3.52882">
        <ele>320</ele>
        <time>2012-11-24T01:32:49Z</time>
      </trkpt>
      <trkpt lat="45.8175" lon="3.52983">
        <ele>323</ele>
        <time>2012-11-24T01:33:09Z</time>
      </trkpt>
      <trkpt lat="45.81728" lon="3.53007">
        <ele>323</ele>
        <time>2012-11-24T01:33:13Z</time>
      </trkpt>
      <trkpt lat="45.8168" lon="3.53046">
        <ele>323</ele>
        <time>2012-11-24T01:33:20Z</time>
      </trkpt>
      <trkpt lat="45.81635" lon="3.53052">
        <ele>323</ele>
        <time>2012-11-24T01:33:26Z</time>
      </trkpt>
      <trkpt lat="45.81612" lon="3.53061">
        <ele>323</ele>
        <time>2012-11-24T01:33:29Z</time>
      </trkpt>
      <trkpt lat="45.81513" lon="3.53142">
        <ele>323</ele>
        <time>2012-11-24T01:33:45Z</time>
      </trkpt>
      <trkpt lat="45.81382" lon="3.53155">
        <ele>317</ele>
        <time>2012-11-24T01:34:02Z</time>
      </trkpt>
      <trkpt lat="45.81179" lon="3.53246">
        <ele>316</ele>
        <time>2012-11-24T01:34:31Z</time>
      </trkpt>
      <trkpt lat="45.8114" lon="3.53258">
        <ele>314</ele>
        <time>2012-11-24T01:34:36Z</time>
      </trkpt>
      <trkpt lat="45.81123" lon="3.53259">
        <ele>314</ele>
        <time>2012-11-24T01:34:38Z</time>
      </trkpt>
      <trkpt lat="45.81074" lon="3.53242">
        <ele>313</ele>
        <time>2012-11-24T01:34:45Z</time>
      </trkpt>
      <trkpt lat="45.8105" lon="3.53246">
        <ele>313</ele>
        <time>2012-11-24T01:34:49Z</time>
      </trkpt>
      <trkpt lat="45.81027" lon="3.53261">
        <ele>313</ele>
        <time>2012-11-24T01:34:52Z</time>
      </trkpt>
      <trkpt lat="45.80936" lon="3.53344">
        <ele>314</ele>
        <time>2012-11-24T01:35:08Z</time>
      </trkpt>
      <trkpt lat="45.80858" lon="3.53459">
        <ele>316</ele>
        <time>2012-11-24T01:35:28Z</time>
      </trkpt>
      <trkpt lat="45.80847" lon="3.53469">
        <ele>316</ele>
        <time>2012-11-24T01:35:30Z</time>
      </trkpt>
      <trkpt lat="45.80764" lon="3.53524">
        <ele>316</ele>
        <time>2012-11-24T01:35:42Z</time>
      </trkpt>
      <trkpt lat="45.807" lon="3.5353">
        <ele>317</ele>
        <time>2012-11-24T01:35:53Z</time>
      </trkpt>
      <trkpt lat="45.80587" lon="3.53588">
        <ele>319</ele>
        <time>2012-11-24T01:36:14Z</time>
      </trkpt>
      <trkpt lat="45.80496" lon="3.53604">
        <ele>319</ele>
        <time>2012-11-24T01:36:26Z</time>
      </trkpt>
      <trkpt lat="45.80274" lon="3.53598">
        <ele>312</ele>
        <time>2012-11-24T01:36:56Z</time>
      </trkpt>
      <trkpt lat="45.80256" lon="3.53583">
        <ele>312</ele>
        <time>2012-11-24T01:36:59Z</time>
      </trkpt>
      <trkpt lat="45.80244" lon="3.53518">
        <ele>312</ele>
        <time>2012-11-24T01:37:07Z</time>
      </trkpt>
      <trkpt lat="45.8023" lon="3.53484">
        <ele>313</ele>
        <time>2012-11-24T01:37:11Z</time>
      </trkpt>
      <trkpt lat="45.80207" lon="3.53463">
        <ele>313</ele>
        <time>2012-11-24T01:37:15Z</time>
      </trkpt>
      <trkpt lat="45.80183" lon="3.53457">
        <ele>313</ele>
        <time>2012-11-24T01:37:18Z</time>
      </trkpt>
      <trkpt lat="45.80051" lon="3.53448">
        <ele>313</ele>
        <time>2012-11-24T01:37:35Z</time>
      </trkpt>
      <trkpt lat="45.80017" lon="3.53461">
        <ele>310</ele>
        <time>2012-11-24T01:37:40Z</time>
      </trkpt>
      <trkpt lat="45.79973" lon="3.53505">
        <ele>307</ele>
        <time>2012-11-24T01:37:47Z</time>
      </trkpt>
      <trkpt lat="45.79894" lon="3.53502">
        <ele>302</ele>
        <time>2012-11-24T01:37:58Z</time>
      </trkpt>
      <trkpt lat="45.79833" lon="3.53509">
        <ele>301</ele>
        <time>2012-11-24T01:38:06Z</time>
      </trkpt>
      <trkpt lat="45.79795" lon="3.53494">
        <ele>301</ele>
        <time>2012-11-24T01:38:11Z</time>
      </trkpt>
      <trkpt lat="45.79712" lon="3.53448">
        <ele>302</ele>
        <time>2012-11-24T01:38:27Z</time>
      </trkpt>
      <trkpt lat="45.79682" lon="3.53446">
        <ele>303</ele>
        <time>2012-11-24T01:38:32Z</time>
      </trkpt>
      <trkpt lat="45.79494" lon="3.53612">
        <ele>301</ele>
        <time>2012-11-24T01:39:01Z</time>
      </trkpt>
      <trkpt lat="45.79421" lon="3.53698">
        <ele>301</ele>
        <time>2012-11-24T01:39:14Z</time>
      </trkpt>
      <trkpt lat="45.79372" lon="3.53795">
        <ele>301</ele>
        <time>2012-11-24T01:39:26Z</time>
      </trkpt>
      <trkpt lat="45.7927" lon="3.539">
        <ele>302</ele>
        <time>2012-11-24T01:39:44Z</time>
      </trkpt>
      <trkpt lat="45.79256" lon="3.53938">
        <ele>302</ele>
        <time>2012-11-24T01:39:50Z</time>
      </trkpt>
      <trkpt lat="45.79177" lon="3.54414">
        <ele>312</ele>
        <time>2012-11-24T01:40:58Z</time>
      </trkpt>
      <trkpt lat="45.79138" lon="3.54503">
        <ele>315</ele>
        <time>2012-11-24T01:41:15Z</time>
      </trkpt>
      <trkpt lat="45.79119" lon="3.54499">
        <ele>316</ele>
        <time>2012-11-24T01:41:20Z</time>
      </trkpt>
      <trkpt lat="45.79119" lon="3.54499">
        <ele>316</ele>
        <time>2012-11-24T01:41:21Z</time>
      </trkpt>
      <trkpt lat="45.79035" lon="3.54487">
        <ele>310</ele>
        <time>2012-11-24T01:41:32Z</time>
      </trkpt>
      <trkpt lat="45.78965" lon="3.54442">
        <ele>306</ele>
        <time>2012-11-24T01:41:42Z</time>
      </trkpt>
      <trkpt lat="45.78864" lon="3.54443">
        <ele>304</ele>
        <time>2012-11-24T01:41:56Z</time>
      </trkpt>
      <trkpt lat="45.78836" lon="3.54452">
        <ele>304</ele>
        <time>2012-11-24T01:42:00Z</time>
      </trkpt>
      <trkpt lat="45.78757" lon="3.54499">
        <ele>304</ele>
        <time>2012-11-24T01:42:11Z</time>
      </trkpt>
      <trkpt lat="45.78694" lon="3.54527">
        <ele>303</ele>
        <time>2012-11-24T01:42:20Z</time>
      </trkpt>
      <trkpt lat="45.78634" lon="3.54542">
        <ele>303</ele>
        <time>2012-11-24T01:42:28Z</time>
      </trkpt>
      <trkpt lat="45.7857" lon="3.5457">
        <ele>303</ele>
        <time>2012-11-24T01:42:39Z</time>
      </trkpt>
      <trkpt lat="45.78527" lon="3.54574">
        <ele>304</ele>
        <time>2012-11-24T01:42:45Z</time>
      </trkpt>
      <trkpt lat="45.7849" lon="3.54567">
        <ele>304</ele>
        <time>2012-11-24T01:42:50Z</time>
      </trkpt>
      <trkpt lat="45.78455" lon="3.54553">
        <ele>304</ele>
        <time>2012-11-24T01:42:55Z</time>
      </trkpt>
      <trkpt lat="45.78411" lon="3.54517">
        <ele>304</ele>
        <time>2012-11-24T01:43:02Z</time>
      </trkpt>
      <trkpt lat="45.78392" lon="3.54508">
        <ele>304</ele>
        <time>2012-11-24T01:43:06Z</time>
      </trkpt>
      <trkpt lat="45.78367" lon="3.54506">
        <ele>305</ele>
        <time>2012-11-24T01:43:11Z</time>
      </trkpt>
      <trkpt lat="45.78291" lon="3.54527">
        <ele>308</ele>
        <time>2012-11-24T01:43:28Z</time>
      </trkpt>
      <trkpt lat="45.78263" lon="3.54528">
        <ele>308</ele>
        <time>2012-11-24T01:43:32Z</time>
      </trkpt>
      <trkpt lat="45.78249" lon="3.54519">
        <ele>308</ele>
        <time>2012-11-24T01:43:34Z</time>
      </trkpt>
      <trkpt lat="45.7823" lon="3.54487">
        <ele>308</ele>
        <time>2012-11-24T01:43:38Z</time>
      </trkpt>
      <trkpt lat="45.78218" lon="3.5448">
        <ele>308</ele>
        <time>2012-11-24T01:43:39Z</time>
      </trkpt>
      <trkpt lat="45.78206" lon="3.54482">
        <ele>308</ele>
        <time>2012-11-24T01:43:41Z</time>
      </trkpt>
      <trkpt lat="45.78194" lon="3.54496">
        <ele>308</ele>
        <time>2012-11-24T01:43:44Z</time>
      </trkpt>
      <trkpt lat="45.7813" lon="3.54623">
        <ele>311</ele>
        <time>2012-11-24T01:44:05Z</time>
      </trkpt>
      <trkpt lat="45.78071" lon="3.54694">
        <ele>311</ele>
        <time>2012-11-24T01:44:16Z</time>
      </trkpt>
      <trkpt lat="45.78017" lon="3.54747">
        <ele>312</ele>
        <time>2012-11-24T01:44:26Z</time>
      </trkpt>
      <trkpt lat="45.77924" lon="3.54785">
        <ele>314</ele>
        <time>2012-11-24T01:44:44Z</time>
      </trkpt>
      <trkpt lat="45.77895" lon="3.54806">
        <ele>316</ele>
        <time>2012-11-24T01:44:53Z</time>
      </trkpt>
      <trkpt lat="45.77879" lon="3.5483">
        <ele>317</ele>
        <time>2012-11-24T01:45:00Z</time>
      </trkpt>
      <trkpt lat="45.77853" lon="3.54903">
        <ele>321</ele>
        <time>2012-11-24T01:45:16Z</time>
      </trkpt>
      <trkpt lat="45.77801" lon="3.54929">
        <ele>323</ele>
        <time>2012-11-24T01:45:30Z</time>
      </trkpt>
      <trkpt lat="45.77785" lon="3.54948">
        <ele>325</ele>
        <time>2012-11-24T01:45:36Z</time>
      </trkpt>
      <trkpt lat="45.77761" lon="3.5499">
        <ele>327</ele>
        <time>2012-11-24T01:45:45Z</time>
      </trkpt>
      <trkpt lat="45.77735" lon="3.55018">
        <ele>327</ele>
        <time>2012-11-24T01:45:51Z</time>
      </trkpt>
      <trkpt lat="45.77682" lon="3.55063">
        <ele>328</ele>
        <time>2012-11-24T01:46:00Z</time>
      </trkpt>
      <trkpt lat="45.7765" lon="3.55075">
        <ele>326</ele>
        <time>2012-11-24T01:46:05Z</time>
      </trkpt>
      <trkpt lat="45.7759" lon="3.5507">
        <ele>325</ele>
        <time>2012-11-24T01:46:13Z</time>
      </trkpt>
      <trkpt lat="45.77522" lon="3.55055">
        <ele>323</ele>
        <time>2012-11-24T01:46:22Z</time>
      </trkpt>
      <trkpt lat="45.77474" lon="3.55037">
        <ele>323</ele>
        <time>2012-11-24T01:46:29Z</time>
      </trkpt>
      <trkpt lat="45.77397" lon="3.54991">
        <ele>321</ele>
        <time>2012-11-24T01:46:40Z</time>
      </trkpt>
      <trkpt lat="45.77356" lon="3.54981">
        <ele>321</ele>
        <time>2012-11-24T01:46:45Z</time>
      </trkpt>
      <trkpt lat="45.76929" lon="3.55061">
        <ele>322</ele>
        <time>2012-11-24T01:47:45Z</time>
      </trkpt>
      <trkpt lat="45.76675" lon="3.5506">
        <ele>322</ele>
        <time>2012-11-24T01:48:19Z</time>
      </trkpt>
      <trkpt lat="45.76436" lon="3.55069">
        <ele>323</ele>
        <time>2012-11-24T01:48:54Z</time>
      </trkpt>
      <trkpt lat="45.76412" lon="3.55066">
        <ele>322</ele>
        <time>2012-11-24T01:48:57Z</time>
      </trkpt>
      <trkpt lat="45.76308" lon="3.55033">
        <ele>320</ele>
        <time>2012-11-24T01:49:11Z</time>
      </trkpt>
      <trkpt lat="45.76276" lon="3.55036">
        <ele>319</ele>
        <time>2012-11-24T01:49:15Z</time>
      </trkpt>
      <trkpt lat="45.76214" lon="3.55054">
        <ele>319</ele>
        <time>2012-11-24T01:49:24Z</time>
      </trkpt>
      <trkpt lat="45.76154" lon="3.55054">
        <ele>318</ele>
        <time>2012-11-24T01:49:32Z</time>
      </trkpt>
      <trkpt lat="45.76097" lon="3.55047">
        <ele>318</ele>
        <time>2012-11-24T01:49:39Z</time>
      </trkpt>
      <trkpt lat="45.76026" lon="3.55024">
        <ele>316</ele>
        <time>2012-11-24T01:49:49Z</time>
      </trkpt>
      <trkpt lat="45.75875" lon="3.54993">
        <ele>314</ele>
        <time>2012-11-24T01:50:09Z</time>
      </trkpt>
      <trkpt lat="45.75839" lon="3.54991">
        <ele>314</ele>
        <time>2012-11-24T01:50:14Z</time>
      </trkpt>
      <trkpt lat="45.75789" lon="3.54997">
        <ele>314</ele>
        <time>2012-11-24T01:50:21Z</time>
      </trkpt>
      <trkpt lat="45.75765" lon="3.54992">
        <ele>314</ele>
        <time>2012-11-24T01:50:24Z</time>
      </trkpt>
      <trkpt lat="45.75601" lon="3.54905">
        <ele>316</ele>
        <time>2012-11-24T01:50:52Z</time>
      </trkpt>
      <trkpt lat="45.75593" lon="3.54887">
        <ele>315</ele>
        <time>2012-11-24T01:50:54Z</time>
      </trkpt>
      <trkpt lat="45.75584" lon="3.54808">
        <ele>313</ele>
        <time>2012-11-24T01:51:02Z</time>
      </trkpt>
      <trkpt lat="45.75574" lon="3.54771">
        <ele>313</ele>
        <time>2012-11-24T01:51:06Z</time>
      </trkpt>
      <trkpt lat="45.75527" lon="3.54663">
        <ele>313</ele>
        <time>2012-11-24T01:51:20Z</time>
      </trkpt>
      <trkpt lat="45.75485" lon="3.54521">
        <ele>315</ele>
        <time>2012-11-24T01:51:37Z</time>
      </trkpt>
      <trkpt lat="45.75451" lon="3.54464">
        <ele>315</ele>
        <time>2012-11-24T01:51:44Z</time>
      </trkpt>
      <trkpt lat="45.75416" lon="3.54321">
        <ele>316</ele>
        <time>2012-11-24T01:52:00Z</time>
      </trkpt>
      <trkpt lat="45.75422" lon="3.54319">
        <ele>316</ele>
        <time>2012-11-24T01:52:01Z</time>
      </trkpt>
      <trkpt lat="45.75422" lon="3.54319">
        <ele>316</ele>
        <time>2012-11-24T01:52:02Z</time>
      </trkpt>
      <trkpt lat="45.75648" lon="3.54228">
        <ele>317</ele>
        <time>2012-11-24T01:52:36Z</time>
      </trkpt>
      <trkpt lat="45.75747" lon="3.54203">
        <ele>317</ele>
        <time>2012-11-24T01:52:49Z</time>
      </trkpt>
      <trkpt lat="45.76088" lon="3.54193">
        <ele>316</ele>
        <time>2012-11-24T01:53:35Z</time>
      </trkpt>
      <trkpt lat="45.76127" lon="3.5418">
        <ele>315</ele>
        <time>2012-11-24T01:53:40Z</time>
      </trkpt>
      <trkpt lat="45.76242" lon="3.54103">
        <ele>315</ele>
        <time>2012-11-24T01:53:57Z</time>
      </trkpt>
      <trkpt lat="45.76297" lon="3.54076">
        <ele>315</ele>
        <time>2012-11-24T01:54:05Z</time>
      </trkpt>
      <trkpt lat="45.7633" lon="3.54048">
        <ele>315</ele>
        <time>2012-11-24T01:54:10Z</time>
      </trkpt>
      <trkpt lat="45.76337" lon="3.54051">
        <ele>315</ele>
        <time>2012-11-24T01:54:11Z</time>
      </trkpt>
      <trkpt lat="45.76346" lon="3.54045">
        <ele>315</ele>
        <time>2012-11-24T01:54:13Z</time>
      </trkpt>
      <trkpt lat="45.76349" lon="3.54028">
        <ele>315</ele>
        <time>2012-11-24T01:54:15Z</time>
      </trkpt>
      <trkpt lat="45.76345" lon="3.54019">
        <ele>315</ele>
        <time>2012-11-24T01:54:16Z</time>
      </trkpt>
      <trkpt lat="45.76354" lon="3.54">
        <ele>315</ele>
        <time>2012-11-24T01:54:19Z</time>
      </trkpt>
      <trkpt lat="45.76386" lon="3.5397">
        <ele>316</ele>
        <time>2012-11-24T01:54:26Z</time>
      </trkpt>
      <trkpt lat="45.76399" lon="3.53952">
        <ele>317</ele>
        <time>2012-11-24T01:54:29Z</time>
      </trkpt>
      <trkpt lat="45.7644" lon="3.53878">
        <ele>320</ele>
        <time>2012-11-24T01:54:46Z</time>
      </trkpt>
      <trkpt lat="45.76485" lon="3.53825">
        <ele>323</ele>
        <time>2012-11-24T01:55:00Z</time>
      </trkpt>
      <trkpt lat="45.76505" lon="3.53781">
        <ele>323</ele>
        <time>2012-11-24T01:55:07Z</time>
      </trkpt>
      <trkpt lat="45.76742" lon="3.52933">
        <ele>340</ele>
        <time>2012-11-24T01:57:11Z</time>
      </trkpt>
      <trkpt lat="45.76753" lon="3.52914">
        <ele>340</ele>
        <time>2012-11-24T01:57:15Z</time>
      </trkpt>
      <trkpt lat="45.7678" lon="3.52897">
        <ele>341</ele>
        <time>2012-11-24T01:57:21Z</time>
      </trkpt>
      <trkpt lat="45.7681" lon="3.5289">
        <ele>342</ele>
        <time>2012-11-24T01:57:28Z</time>
      </trkpt>
      <trkpt lat="45.76872" lon="3.52887">
        <ele>345</ele>
        <time>2012-11-24T01:57:42Z</time>
      </trkpt>
      <trkpt lat="45.76882" lon="3.52879">
        <ele>346</ele>
        <time>2012-11-24T01:57:46Z</time>
      </trkpt>
      <trkpt lat="45.7689" lon="3.52859">
        <ele>347</ele>
        <time>2012-11-24T01:57:52Z</time>
      </trkpt>
      <trkpt lat="45.76894" lon="3.52781">
        <ele>353</ele>
        <time>2012-11-24T01:58:12Z</time>
      </trkpt>
      <trkpt lat="45.76912" lon="3.52729">
        <ele>357</ele>
        <time>2012-11-24T01:58:27Z</time>
      </trkpt>
      <trkpt lat="45.76909" lon="3.52669">
        <ele>359</ele>
        <time>2012-11-24T01:58:39Z</time>
      </trkpt>
      <trkpt lat="45.7692" lon="3.52608">
        <ele>362</ele>
        <time>2012-11-24T01:58:52Z</time>
      </trkpt>
      <trkpt lat="45.76918" lon="3.5254">
        <ele>366</ele>
        <time>2012-11-24T01:59:06Z</time>
      </trkpt>
      <trkpt lat="45.76934" lon="3.52486">
        <ele>368</ele>
        <time>2012-11-24T01:59:18Z</time>
      </trkpt>
      <trkpt lat="45.76938" lon="3.52394">
        <ele>373</ele>
        <time>2012-11-24T01:59:37Z</time>
      </trkpt>
      <trkpt lat="45.76945" lon="3.52339">
        <ele>376</ele>
        <time>2012-11-24T01:59:51Z</time>
      </trkpt>
      <trkpt lat="45.76939" lon="3.52313">
        <ele>378</ele>
        <time>2012-11-24T01:59:57Z</time>
      </trkpt>
      <trkpt lat="45.76905" lon="3.52235">
        <ele>384</ele>
        <time>2012-11-24T02:00:20Z</time>
      </trkpt>
      <trkpt lat="45.76892" lon="3.52192">
        <ele>386</ele>
        <time>2012-11-24T02:00:30Z</time>
      </trkpt>
      <trkpt lat="45.7688" lon="3.52095">
        <ele>391</ele>
        <time>2012-11-24T02:00:50Z</time>
      </trkpt>
      <trkpt lat="45.76881" lon="3.52068">
        <ele>390</ele>
        <time>2012-11-24T02:00:53Z</time>
      </trkpt>
      <trkpt lat="45.76886" lon="3.52047">
        <ele>390</ele>
        <time>2012-11-24T02:00:55Z</time>
      </trkpt>
      <trkpt lat="45.76896" lon="3.52033">
        <ele>390</ele>
        <time>2012-11-24T02:00:57Z</time>
      </trkpt>
      <trkpt lat="45.76906" lon="3.5203">
        <ele>390</ele>
        <time>2012-11-24T02:00:58Z</time>
      </trkpt>
      <trkpt lat="45.76943" lon="3.52048">
        <ele>389</ele>
        <time>2012-11-24T02:01:03Z</time>
      </trkpt>
      <trkpt lat="45.76966" lon="3.52046">
        <ele>389</ele>
        <time>2012-11-24T02:01:06Z</time>
      </trkpt>
      <trkpt lat="45.77007" lon="3.52016">
        <ele>389</ele>
        <time>2012-11-24T02:01:14Z</time>
      </trkpt>
      <trkpt lat="45.77101" lon="3.51968">
        <ele>391</ele>
        <time>2012-11-24T02:01:31Z</time>
      </trkpt>
      <trkpt lat="45.77121" lon="3.51944">
        <ele>392</ele>
        <time>2012-11-24T02:01:37Z</time>
      </trkpt>
      <trkpt lat="45.77133" lon="3.5192">
        <ele>393</ele>
        <time>2012-11-24T02:01:43Z</time>
      </trkpt>
      <trkpt lat="45.77148" lon="3.51858">
        <ele>396</ele>
        <time>2012-11-24T02:01:55Z</time>
      </trkpt>
      <trkpt lat="45.77147" lon="3.51839">
        <ele>397</ele>
        <time>2012-11-24T02:02:00Z</time>
      </trkpt>
      <trkpt lat="45.77142" lon="3.51824">
        <ele>398</ele>
        <time>2012-11-24T02:02:05Z</time>
      </trkpt>
      <trkpt lat="45.7713" lon="3.51807">
        <ele>400</ele>
        <time>2012-11-24T02:02:11Z</time>
      </trkpt>
      <trkpt lat="45.7711" lon="3.51792">
        <ele>402</ele>
        <time>2012-11-24T02:02:20Z</time>
      </trkpt>
      <trkpt lat="45.77004" lon="3.51746">
        <ele>415</ele>
        <time>2012-11-24T02:03:04Z</time>
      </trkpt>
      <trkpt lat="45.76961" lon="3.51736">
        <ele>416</ele>
        <time>2012-11-24T02:03:14Z</time>
      </trkpt>
      <trkpt lat="45.76875" lon="3.51703">
        <ele>421</ele>
        <time>2012-11-24T02:03:36Z</time>
      </trkpt>
      <trkpt lat="45.76861" lon="3.51693">
        <ele>421</ele>
        <time>2012-11-24T02:03:39Z</time>
      </trkpt>
      <trkpt lat="45.76855" lon="3.51682">
        <ele>421</ele>
        <time>2012-11-24T02:03:41Z</time>
      </trkpt>
      <trkpt lat="45.76842" lon="3.51619">
        <ele>423</ele>
        <time>2012-11-24T02:03:51Z</time>
      </trkpt>
      <trkpt lat="45.76792" lon="3.51513">
        <ele>426</ele>
        <time>2012-11-24T02:04:09Z</time>
      </trkpt>
      <trkpt lat="45.76789" lon="3.51476">
        <ele>427</ele>
        <time>2012-11-24T02:04:15Z</time>
      </trkpt>
      <trkpt lat="45.76794" lon="3.51442">
        <ele>428</ele>
        <time>2012-11-24T02:04:21Z</time>
      </trkpt>
      <trkpt lat="45.76811" lon="3.51409">
        <ele>429</ele>
        <time>2012-11-24T02:04:28Z</time>
      </trkpt>
      <trkpt lat="45.76825" lon="3.51397">
        <ele>429</ele>
        <time>2012-11-24T02:04:32Z</time>
      </trkpt>
      <trkpt lat="45.76961" lon="3.51325">
        <ele>436</ele>
        <time>2012-11-24T02:05:05Z</time>
      </trkpt>
      <trkpt lat="45.76981" lon="3.51305">
        <ele>436</ele>
        <time>2012-11-24T02:05:09Z</time>
      </trkpt>
      <trkpt lat="45.76995" lon="3.51284">
        <ele>436</ele>
        <time>2012-11-24T02:05:11Z</time>
      </trkpt>
      <trkpt lat="45.77015" lon="3.51209">
        <ele>436</ele>
        <time>2012-11-24T02:05:19Z</time>
      </trkpt>
      <trkpt lat="45.77026" lon="3.51183">
        <ele>436</ele>
        <time>2012-11-24T02:05:22Z</time>
      </trkpt>
      <trkpt lat="45.7707" lon="3.51112">
        <ele>436</ele>
        <time>2012-11-24T02:05:31Z</time>
      </trkpt>
      <trkpt lat="45.77092" lon="3.51056">
        <ele>436</ele>
        <time>2012-11-24T02:05:37Z</time>
      </trkpt>
      <trkpt lat="45.77109" lon="3.51032">
        <ele>436</ele>
        <time>2012-11-24T02:05:40Z</time>
      </trkpt>
      <trkpt lat="45.77166" lon="3.50984">
        <ele>436</ele>
        <time>2012-11-24T02:05:49Z</time>
      </trkpt>
      <trkpt lat="45.77182" lon="3.50965">
        <ele>436</ele>
        <time>2012-11-24T02:05:51Z</time>
      </trkpt>
      <trkpt lat="45.7721" lon="3.5091">
        <ele>436</ele>
        <time>2012-11-24T02:05:59Z</time>
      </trkpt>
      <trkpt lat="45.77241" lon="3.50832">
        <ele>437</ele>
        <time>2012-11-24T02:06:09Z</time>
      </trkpt>
      <trkpt lat="45.77391" lon="3.50383">
        <ele>430</ele>
        <time>2012-11-24T02:06:55Z</time>
      </trkpt>
      <trkpt lat="45.77373" lon="3.50381">
        <ele>431</ele>
        <time>2012-11-24T02:07:00Z</time>
      </trkpt>
      <trkpt lat="45.77373" lon="3.50381">
        <ele>431</ele>
        <time>2012-11-24T02:07:01Z</time>
      </trkpt>
      <trkpt lat="45.77391" lon="3.50383">
        <ele>430</ele>
        <time>2012-11-24T02:07:03Z</time>
      </trkpt>
      <trkpt lat="45.77517" lon="3.50005">
        <ele>430</ele>
        <time>2012-11-24T02:07:42Z</time>
      </trkpt>
      <trkpt lat="45.77527" lon="3.49981">
        <ele>429</ele>
        <time>2012-11-24T02:07:45Z</time>
      </trkpt>
      <trkpt lat="45.7757" lon="3.49917">
        <ele>426</ele>
        <time>2012-11-24T02:07:53Z</time>
      </trkpt>
      <trkpt lat="45.77598" lon="3.49852">
        <ele>424</ele>
        <time>2012-11-24T02:08:00Z</time>
      </trkpt>
      <trkpt lat="45.77613" lon="3.49806">
        <ele>420</ele>
        <time>2012-11-24T02:08:05Z</time>
      </trkpt>
      <trkpt lat="45.77663" lon="3.49619">
        <ele>408</ele>
        <time>2012-11-24T02:08:24Z</time>
      </trkpt>
      <trkpt lat="45.77683" lon="3.49505">
        <ele>398</ele>
        <time>2012-11-24T02:08:35Z</time>
      </trkpt>
      <trkpt lat="45.77711" lon="3.49453">
        <ele>393</ele>
        <time>2012-11-24T02:08:41Z</time>
      </trkpt>
      <trkpt lat="45.7773" lon="3.49399">
        <ele>387</ele>
        <time>2012-11-24T02:08:46Z</time>
      </trkpt>
      <trkpt lat="45.77737" lon="3.4935">
        <ele>383</ele>
        <time>2012-11-24T02:08:51Z</time>
      </trkpt>
      <trkpt lat="45.77738" lon="3.49268">
        <ele>377</ele>
        <time>2012-11-24T02:08:59Z</time>
      </trkpt>
      <trkpt lat="45.77746" lon="3.49213">
        <ele>372</ele>
        <time>2012-11-24T02:09:04Z</time>
      </trkpt>
      <trkpt lat="45.77767" lon="3.49167">
        <ele>368</ele>
        <time>2012-11-24T02:09:09Z</time>
      </trkpt>
      <trkpt lat="45.77899" lon="3.48954">
        <ele>348</ele>
        <time>2012-11-24T02:09:35Z</time>
      </trkpt>
      <trkpt lat="45.77927" lon="3.48902">
        <ele>347</ele>
        <time>2012-11-24T02:09:42Z</time>
      </trkpt>
      <trkpt lat="45.77947" lon="3.48853">
        <ele>347</ele>
        <time>2012-11-24T02:09:47Z</time>
      </trkpt>
      <trkpt lat="45.77955" lon="3.48817">
        <ele>347</ele>
        <time>2012-11-24T02:09:50Z</time>
      </trkpt>
      <trkpt lat="45.77971" lon="3.48714">
        <ele>352</ele>
        <time>2012-11-24T02:10:14Z</time>
      </trkpt>
      <trkpt lat="45.77973" lon="3.48677">
        <ele>355</ele>
        <time>2012-11-24T02:10:23Z</time>
      </trkpt>
      <trkpt lat="45.77955" lon="3.48601">
        <ele>358</ele>
        <time>2012-11-24T02:10:40Z</time>
      </trkpt>
      <trkpt lat="45.7792" lon="3.48512">
        <ele>364</ele>
        <time>2012-11-24T02:11:01Z</time>
      </trkpt>
      <trkpt lat="45.779" lon="3.48449">
        <ele>366</ele>
        <time>2012-11-24T02:11:15Z</time>
      </trkpt>
      <trkpt lat="45.77892" lon="3.48343">
        <ele>371</ele>
        <time>2012-11-24T02:11:35Z</time>
      </trkpt>
      <trkpt lat="45.77867" lon="3.48239">
        <ele>379</ele>
        <time>2012-11-24T02:12:04Z</time>
      </trkpt>
      <trkpt lat="45.77864" lon="3.48199">
        <ele>382</ele>
        <time>2012-11-24T02:12:15Z</time>
      </trkpt>
      <trkpt lat="45.77846" lon="3.48088">
        <ele>388</ele>
        <time>2012-11-24T02:12:42Z</time>
      </trkpt>
      <trkpt lat="45.77845" lon="3.48039">
        <ele>392</ele>
        <time>2012-11-24T02:12:54Z</time>
      </trkpt>
      <trkpt lat="45.77858" lon="3.47962">
        <ele>393</ele>
        <time>2012-11-24T02:13:06Z</time>
      </trkpt>
      <trkpt lat="45.77851" lon="3.47934">
        <ele>394</ele>
        <time>2012-11-24T02:13:11Z</time>
      </trkpt>
      <trkpt lat="45.77826" lon="3.47884">
        <ele>396</ele>
        <time>2012-11-24T02:13:20Z</time>
      </trkpt>
      <trkpt lat="45.77821" lon="3.47866">
        <ele>397</ele>
        <time>2012-11-24T02:13:24Z</time>
      </trkpt>
      <trkpt lat="45.77819" lon="3.4785">
        <ele>398</ele>
        <time>2012-11-24T02:13:28Z</time>
      </trkpt>
      <trkpt lat="45.77826" lon="3.47815">
        <ele>400</ele>
        <time>2012-11-24T02:13:37Z</time>
      </trkpt>
      <trkpt lat="45.77846" lon="3.47787">
        <ele>402</ele>
        <time>2012-11-24T02:13:46Z</time>
      </trkpt>
      <trkpt lat="45.77959" lon="3.47741">
        <ele>413</ele>
        <time>2012-11-24T02:14:27Z</time>
      </trkpt>
      <trkpt lat="45.77976" lon="3.47725">
        <ele>413</ele>
        <time>2012-11-24T02:14:31Z</time>
      </trkpt>
      <trkpt lat="45.77987" lon="3.47682">
        <ele>414</ele>
        <time>2012-11-24T02:14:38Z</time>
      </trkpt>
      <trkpt lat="45.77983" lon="3.4758">
        <ele>417</ele>
        <time>2012-11-24T02:14:53Z</time>
      </trkpt>
      <trkpt lat="45.77986" lon="3.47555">
        <ele>417</ele>
        <time>2012-11-24T02:14:57Z</time>
      </trkpt>
      <trkpt lat="45.78013" lon="3.4746">
        <ele>420</ele>
        <time>2012-11-24T02:15:13Z</time>
      </trkpt>
      <trkpt lat="45.78032" lon="3.47422">
        <ele>422</ele>
        <time>2012-11-24T02:15:21Z</time>
      </trkpt>
      <trkpt lat="45.78864" lon="3.46202">
        <ele>422</ele>
        <time>2012-11-24T02:18:00Z</time>
      </trkpt>
      <trkpt lat="45.79007" lon="3.46003">
        <ele>420</ele>
        <time>2012-11-24T02:18:27Z</time>
      </trkpt>
      <trkpt lat="45.79077" lon="3.45898">
        <ele>420</ele>
        <time>2012-11-24T02:18:40Z</time>
      </trkpt>
      <trkpt lat="45.79106" lon="3.45846">
        <ele>420</ele>
        <time>2012-11-24T02:18:46Z</time>
      </trkpt>
      <trkpt lat="45.79338" lon="3.45505">
        <ele>420</ele>
        <time>2012-11-24T02:19:31Z</time>
      </trkpt>
      <trkpt lat="45.79354" lon="3.45449">
        <ele>419</ele>
        <time>2012-11-24T02:19:36Z</time>
      </trkpt>
      <trkpt lat="45.79474" lon="3.44923">
        <ele>412</ele>
        <time>2012-11-24T02:20:28Z</time>
      </trkpt>
      <trkpt lat="45.79513" lon="3.44771">
        <ele>409</ele>
        <time>2012-11-24T02:20:43Z</time>
      </trkpt>
      <trkpt lat="45.79766" lon="3.43703">
        <ele>384</ele>
        <time>2012-11-24T02:22:28Z</time>
      </trkpt>
      <trkpt lat="45.80209" lon="3.41796">
        <ele>378</ele>
        <time>2012-11-24T02:25:35Z</time>
      </trkpt>
      <trkpt lat="45.80259" lon="3.41602">
        <ele>382</ele>
        <time>2012-11-24T02:26:04Z</time>
      </trkpt>
      <trkpt lat="45.809" lon="3.40308">
        <ele>358</ele>
        <time>2012-11-24T02:28:32Z</time>
      </trkpt>
      <trkpt lat="45.81172" lon="3.39851">
        <ele>347</ele>
        <time>2012-11-24T02:29:28Z</time>
      </trkpt>
      <trkpt lat="45.81364" lon="3.39543">
        <ele>340</ele>
        <time>2012-11-24T02:30:06Z</time>
      </trkpt>
      <trkpt lat="45.81543" lon="3.39381">
        <ele>338</ele>
        <time>2012-11-24T02:30:35Z</time>
      </trkpt>
      <trkpt lat="45.81561" lon="3.39371">
        <ele>338</ele>
        <time>2012-11-24T02:30:38Z</time>
      </trkpt>
      <trkpt lat="45.81596" lon="3.39363">
        <ele>338</ele>
        <time>2012-11-24T02:30:44Z</time>
      </trkpt>
      <trkpt lat="45.81677" lon="3.3936">
        <ele>340</ele>
        <time>2012-11-24T02:30:58Z</time>
      </trkpt>
      <trkpt lat="45.81694" lon="3.39353">
        <ele>340</ele>
        <time>2012-11-24T02:31:01Z</time>
      </trkpt>
      <trkpt lat="45.81731" lon="3.39321">
        <ele>341</ele>
        <time>2012-11-24T02:31:10Z</time>
      </trkpt>
      <trkpt lat="45.81753" lon="3.39308">
        <ele>342</ele>
        <time>2012-11-24T02:31:14Z</time>
      </trkpt>
      <trkpt lat="45.81896" lon="3.39277">
        <ele>346</ele>
        <time>2012-11-24T02:31:43Z</time>
      </trkpt>
      <trkpt lat="45.81935" lon="3.39264">
        <ele>347</ele>
        <time>2012-11-24T02:31:52Z</time>
      </trkpt>
      <trkpt lat="45.81972" lon="3.39239">
        <ele>348</ele>
        <time>2012-11-24T02:32:01Z</time>
      </trkpt>
      <trkpt lat="45.81993" lon="3.39213">
        <ele>350</ele>
        <time>2012-11-24T02:32:07Z</time>
      </trkpt>
      <trkpt lat="45.82023" lon="3.3916">
        <ele>350</ele>
        <time>2012-11-24T02:32:14Z</time>
      </trkpt>
      <trkpt lat="45.82359" lon="3.38461">
        <ele>356</ele>
        <time>2012-11-24T02:33:47Z</time>
      </trkpt>
      <trkpt lat="45.82367" lon="3.38464">
        <ele>356</ele>
        <time>2012-11-24T02:33:48Z</time>
      </trkpt>
      <trkpt lat="45.82374" lon="3.38458">
        <ele>356</ele>
        <time>2012-11-24T02:33:49Z</time>
      </trkpt>
      <trkpt lat="45.82377" lon="3.38445">
        <ele>356</ele>
        <time>2012-11-24T02:33:51Z</time>
      </trkpt>
      <trkpt lat="45.82375" lon="3.38437">
        <ele>356</ele>
        <time>2012-11-24T02:33:52Z</time>
      </trkpt>
      <trkpt lat="45.82455" lon="3.38278">
        <ele>358</ele>
        <time>2012-11-24T02:34:14Z</time>
      </trkpt>
      <trkpt lat="45.82483" lon="3.38206">
        <ele>357</ele>
        <time>2012-11-24T02:34:22Z</time>
      </trkpt>
      <trkpt lat="45.82543" lon="3.37951">
        <ele>356</ele>
        <time>2012-11-24T02:34:47Z</time>
      </trkpt>
      <trkpt lat="45.82574" lon="3.37952">
        <ele>357</ele>
        <time>2012-11-24T02:34:53Z</time>
      </trkpt>
      <trkpt lat="45.82602" lon="3.3796">
        <ele>358</ele>
        <time>2012-11-24T02:34:59Z</time>
      </trkpt>
      <trkpt lat="45.82602" lon="3.3796">
        <ele>358</ele>
        <time>2012-11-24T02:35:00Z</time>
      </trkpt>
      <trkpt lat="45.82645" lon="3.3797">
        <ele>358</ele>
        <time>2012-11-24T02:35:07Z</time>
      </trkpt>
      <trkpt lat="45.82682" lon="3.3797">
        <ele>358</ele>
        <time>2012-11-24T02:35:12Z</time>
      </trkpt>
      <trkpt lat="45.82687" lon="3.37923">
        <ele>358</ele>
        <time>2012-11-24T02:35:17Z</time>
      </trkpt>
      <trkpt lat="45.82764" lon="3.37933">
        <ele>359</ele>
        <time>2012-11-24T02:35:28Z</time>
      </trkpt>
      <trkpt lat="45.8282" lon="3.37947">
        <ele>359</ele>
        <time>2012-11-24T02:35:37Z</time>
      </trkpt>
      <trkpt lat="45.82824" lon="3.3803">
        <ele>360</ele>
        <time>2012-11-24T02:35:46Z</time>
      </trkpt>
      <trkpt lat="45.83109" lon="3.38267">
        <ele>363</ele>
        <time>2012-11-24T02:36:37Z</time>
      </trkpt>
      <trkpt lat="45.83129" lon="3.38294">
        <ele>363</ele>
        <time>2012-11-24T02:36:42Z</time>
      </trkpt>
      <trkpt lat="45.83142" lon="3.38331">
        <ele>363</ele>
        <time>2012-11-24T02:36:47Z</time>
      </trkpt>
      <trkpt lat="45.83163" lon="3.3832">
        <ele>364</ele>
        <time>2012-11-24T02:36:51Z</time>
      </trkpt>
      <trkpt lat="45.83184" lon="3.38322">
        <ele>364</ele>
        <time>2012-11-24T02:36:55Z</time>
      </trkpt>
      <trkpt lat="45.83512" lon="3.38592">
        <ele>371</ele>
        <time>2012-11-24T02:38:00Z</time>
      </trkpt>
      <trkpt lat="45.84091" lon="3.39056">
        <ele>383</ele>
        <time>2012-11-24T02:39:58Z</time>
      </trkpt>
      <trkpt lat="45.8416" lon="3.39116">
        <ele>385</ele>
        <time>2012-11-24T02:40:14Z</time>
      </trkpt>
      <trkpt lat="45.8435" lon="3.39264">
        <ele>391</ele>
        <time>2012-11-24T02:40:56Z</time>
      </trkpt>
      <trkpt lat="45.84371" lon="3.39269">
        <ele>391</ele>
        <time>2012-11-24T02:40:59Z</time>
      </trkpt>
      <trkpt lat="45.84642" lon="3.39266">
        <ele>392</ele>
        <time>2012-11-24T02:41:38Z</time>
      </trkpt>
      <trkpt lat="45.84668" lon="3.39272">
        <ele>392</ele>
        <time>2012-11-24T02:41:43Z</time>
      </trkpt>
      <trkpt lat="45.84739" lon="3.39274">
        <ele>395</ele>
        <time>2012-11-24T02:41:58Z</time>
      </trkpt>
      <trkpt lat="45.84736" lon="3.39274">
        <ele>395</ele>
        <time>2012-11-24T02:41:59Z</time>
      </trkpt>
      <trkpt lat="45.84775" lon="3.39276">
        <ele>395</ele>
        <time>2012-11-24T02:42:05Z</time>
      </trkpt>
      <trkpt lat="45.84796" lon="3.39289">
        <ele>395</ele>
        <time>2012-11-24T02:42:09Z</time>
      </trkpt>
      <trkpt lat="45.84824" lon="3.39276">
        <ele>396</ele>
        <time>2012-11-24T02:42:14Z</time>
      </trkpt>
      <trkpt lat="45.8486" lon="3.39274">
        <ele>397</ele>
        <time>2012-11-24T02:42:20Z</time>
      </trkpt>
      <trkpt lat="45.84955" lon="3.39273">
        <ele>398</ele>
        <time>2012-11-24T02:42:35Z</time>
      </trkpt>
      <trkpt lat="45.85113" lon="3.39281">
        <ele>399</ele>
        <time>2012-11-24T02:42:59Z</time>
      </trkpt>
      <trkpt lat="45.85215" lon="3.3927">
        <ele>396</ele>
        <time>2012-11-24T02:43:13Z</time>
      </trkpt>
      <trkpt lat="45.85281" lon="3.39256">
        <ele>394</ele>
        <time>2012-11-24T02:43:22Z</time>
      </trkpt>
      <trkpt lat="45.85296" lon="3.39297">
        <ele>393</ele>
        <time>2012-11-24T02:43:26Z</time>
      </trkpt>
      <trkpt lat="45.853" lon="3.39358">
        <ele>392</ele>
        <time>2012-11-24T02:43:32Z</time>
      </trkpt>
      <trkpt lat="45.85271" lon="3.39487">
        <ele>393</ele>
        <time>2012-11-24T02:43:47Z</time>
      </trkpt>
      <trkpt lat="45.8526" lon="3.39559">
        <ele>393</ele>
        <time>2012-11-24T02:43:54Z</time>
      </trkpt>
      <trkpt lat="45.85245" lon="3.39824">
        <ele>395</ele>
        <time>2012-11-24T02:44:23Z</time>
      </trkpt>
      <trkpt lat="45.85247" lon="3.39868">
        <ele>394</ele>
        <time>2012-11-24T02:44:27Z</time>
      </trkpt>
      <trkpt lat="45.85264" lon="3.39936">
        <ele>394</ele>
        <time>2012-11-24T02:44:34Z</time>
      </trkpt>
      <trkpt lat="45.85292" lon="3.39995">
        <ele>394</ele>
        <time>2012-11-24T02:44:40Z</time>
      </trkpt>
      <trkpt lat="45.85328" lon="3.40035">
        <ele>394</ele>
        <time>2012-11-24T02:44:47Z</time>
      </trkpt>
      <trkpt lat="45.85405" lon="3.40103">
        <ele>395</ele>
        <time>2012-11-24T02:45:01Z</time>
      </trkpt>
      <trkpt lat="45.85418" lon="3.40092">
        <ele>395</ele>
        <time>2012-11-24T02:45:03Z</time>
      </trkpt>
      <trkpt lat="45.85429" lon="3.4009">
        <ele>395</ele>
        <time>2012-11-24T02:45:04Z</time>
      </trkpt>
      <trkpt lat="45.85484" lon="3.40103">
        <ele>395</ele>
        <time>2012-11-24T02:45:12Z</time>
      </trkpt>
      <trkpt lat="45.8564" lon="3.40102">
        <ele>395</ele>
        <time>2012-11-24T02:45:33Z</time>
      </trkpt>
      <trkpt lat="45.85781" lon="3.40134">
        <ele>392</ele>
        <time>2012-11-24T02:45:52Z</time>
      </trkpt>
      <trkpt lat="45.85866" lon="3.40148">
        <ele>393</ele>
        <time>2012-11-24T02:46:06Z</time>
      </trkpt>
      <trkpt lat="45.85866" lon="3.40148">
        <ele>393</ele>
        <time>2012-11-24T02:46:07Z</time>
      </trkpt>
      <trkpt lat="45.85923" lon="3.40161">
        <ele>393</ele>
        <time>2012-11-24T02:46:14Z</time>
      </trkpt>
      <trkpt lat="45.86005" lon="3.40193">
        <ele>393</ele>
        <time>2012-11-24T02:46:26Z</time>
      </trkpt>
      <trkpt lat="45.86149" lon="3.40261">
        <ele>391</ele>
        <time>2012-11-24T02:46:46Z</time>
      </trkpt>
      <trkpt lat="45.862" lon="3.40304">
        <ele>389</ele>
        <time>2012-11-24T02:46:54Z</time>
      </trkpt>
      <trkpt lat="45.8628" lon="3.40386">
        <ele>386</ele>
        <time>2012-11-24T02:47:07Z</time>
      </trkpt>
      <trkpt lat="45.86356" lon="3.40448">
        <ele>384</ele>
        <time>2012-11-24T02:47:19Z</time>
      </trkpt>
      <trkpt lat="45.86396" lon="3.40518">
        <ele>384</ele>
        <time>2012-11-24T02:47:27Z</time>
      </trkpt>
      <trkpt lat="45.86428" lon="3.40554">
        <ele>383</ele>
        <time>2012-11-24T02:47:33Z</time>
      </trkpt>
      <trkpt lat="45.86563" lon="3.40639">
        <ele>382</ele>
        <time>2012-11-24T02:47:52Z</time>
      </trkpt>
      <trkpt lat="45.8662" lon="3.40684">
        <ele>380</ele>
        <time>2012-11-24T02:48:01Z</time>
      </trkpt>
      <trkpt lat="45.86712" lon="3.40733">
        <ele>379</ele>
        <time>2012-11-24T02:48:14Z</time>
      </trkpt>
      <trkpt lat="45.86894" lon="3.4085">
        <ele>379</ele>
        <time>2012-11-24T02:48:41Z</time>
      </trkpt>
      <trkpt lat="45.87007" lon="3.40887">
        <ele>377</ele>
        <time>2012-11-24T02:48:56Z</time>
      </trkpt>
      <trkpt lat="45.87141" lon="3.40942">
        <ele>377</ele>
        <time>2012-11-24T02:49:15Z</time>
      </trkpt>
      <trkpt lat="45.87598" lon="3.4111">
        <ele>370</ele>
        <time>2012-11-24T02:50:18Z</time>
      </trkpt>
      <trkpt lat="45.87637" lon="3.41145">
        <ele>369</ele>
        <time>2012-11-24T02:50:24Z</time>
      </trkpt>
      <trkpt lat="45.87694" lon="3.41211">
        <ele>369</ele>
        <time>2012-11-24T02:50:34Z</time>
      </trkpt>
      <trkpt lat="45.87707" lon="3.41218">
        <ele>368</ele>
        <time>2012-11-24T02:50:36Z</time>
      </trkpt>
      <trkpt lat="45.87844" lon="3.41245">
        <ele>367</ele>
        <time>2012-11-24T02:50:54Z</time>
      </trkpt>
      <trkpt lat="45.87957" lon="3.41248">
        <ele>366</ele>
        <time>2012-11-24T02:51:09Z</time>
      </trkpt>
      <trkpt lat="45.88066" lon="3.41284">
        <ele>366</ele>
        <time>2012-11-24T02:51:24Z</time>
      </trkpt>
      <trkpt lat="45.88093" lon="3.41304">
        <ele>366</ele>
        <time>2012-11-24T02:51:28Z</time>
      </trkpt>
      <trkpt lat="45.88152" lon="3.41371">
        <ele>366</ele>
        <time>2012-11-24T02:51:38Z</time>
      </trkpt>
      <trkpt lat="45.88182" lon="3.41393">
        <ele>365</ele>
        <time>2012-11-24T02:51:43Z</time>
      </trkpt>
      <trkpt lat="45.88219" lon="3.41409">
        <ele>365</ele>
        <time>2012-11-24T02:51:48Z</time>
      </trkpt>
      <trkpt lat="45.88277" lon="3.41414">
        <ele>365</ele>
        <time>2012-11-24T02:51:56Z</time>
      </trkpt>
      <trkpt lat="45.884" lon="3.41383">
        <ele>364</ele>
        <time>2012-11-24T02:52:12Z</time>
      </trkpt>
      <trkpt lat="45.88502" lon="3.41349">
        <ele>365</ele>
        <time>2012-11-24T02:52:29Z</time>
      </trkpt>
      <trkpt lat="45.88598" lon="3.41292">
        <ele>366</ele>
        <time>2012-11-24T02:52:45Z</time>
      </trkpt>
      <trkpt lat="45.88724" lon="3.41265">
        <ele>364</ele>
        <time>2012-11-24T02:53:02Z</time>
      </trkpt>
      <trkpt lat="45.89055" lon="3.41315">
        <ele>359</ele>
        <time>2012-11-24T02:53:46Z</time>
      </trkpt>
      <trkpt lat="45.8912" lon="3.41334">
        <ele>359</ele>
        <time>2012-11-24T02:53:55Z</time>
      </trkpt>
      <trkpt lat="45.89161" lon="3.41358">
        <ele>359</ele>
        <time>2012-11-24T02:54:01Z</time>
      </trkpt>
      <trkpt lat="45.89315" lon="3.41404">
        <ele>358</ele>
        <time>2012-11-24T02:54:22Z</time>
      </trkpt>
      <trkpt lat="45.8939" lon="3.41422">
        <ele>357</ele>
        <time>2012-11-24T02:54:32Z</time>
      </trkpt>
      <trkpt lat="45.89426" lon="3.41422">
        <ele>357</ele>
        <time>2012-11-24T02:54:37Z</time>
      </trkpt>
      <trkpt lat="45.8949" lon="3.41406">
        <ele>355</ele>
        <time>2012-11-24T02:54:46Z</time>
      </trkpt>
      <trkpt lat="45.8958" lon="3.41333">
        <ele>354</ele>
        <time>2012-11-24T02:55:00Z</time>
      </trkpt>
      <trkpt lat="45.89674" lon="3.4128">
        <ele>353</ele>
        <time>2012-11-24T02:55:13Z</time>
      </trkpt>
      <trkpt lat="45.89755" lon="3.41244">
        <ele>351</ele>
        <time>2012-11-24T02:55:24Z</time>
      </trkpt>
      <trkpt lat="45.90174" lon="3.41096">
        <ele>350</ele>
        <time>2012-11-24T02:56:22Z</time>
      </trkpt>
      <trkpt lat="45.90173" lon="3.41098">
        <ele>350</ele>
        <time>2012-11-24T02:56:22Z</time>
      </trkpt>
      <trkpt lat="45.90201" lon="3.41117">
        <ele>350</ele>
        <time>2012-11-24T02:56:27Z</time>
      </trkpt>
      <trkpt lat="45.90236" lon="3.41116">
        <ele>350</ele>
        <time>2012-11-24T02:56:33Z</time>
      </trkpt>
      <trkpt lat="45.90397" lon="3.41062">
        <ele>352</ele>
        <time>2012-11-24T02:56:58Z</time>
      </trkpt>
      <trkpt lat="45.907" lon="3.40989">
        <ele>352</ele>
        <time>2012-11-24T02:57:39Z</time>
      </trkpt>
      <trkpt lat="45.90811" lon="3.40982">
        <ele>350</ele>
        <time>2012-11-24T02:57:54Z</time>
      </trkpt>
      <trkpt lat="45.90966" lon="3.40988">
        <ele>350</ele>
        <time>2012-11-24T02:58:15Z</time>
      </trkpt>
      <trkpt lat="45.91026" lon="3.40977">
        <ele>349</ele>
        <time>2012-11-24T02:58:23Z</time>
      </trkpt>
      <trkpt lat="45.91066" lon="3.40976">
        <ele>349</ele>
        <time>2012-11-24T02:58:28Z</time>
      </trkpt>
      <trkpt lat="45.91212" lon="3.41019">
        <ele>349</ele>
        <time>2012-11-24T02:58:48Z</time>
      </trkpt>
      <trkpt lat="45.91261" lon="3.41041">
        <ele>348</ele>
        <time>2012-11-24T02:58:55Z</time>
      </trkpt>
      <trkpt lat="45.91419" lon="3.41143">
        <ele>348</ele>
        <time>2012-11-24T02:59:18Z</time>
      </trkpt>
      <trkpt lat="45.91533" lon="3.41235">
        <ele>347</ele>
        <time>2012-11-24T02:59:35Z</time>
      </trkpt>
      <trkpt lat="45.91594" lon="3.4127">
        <ele>345</ele>
        <time>2012-11-24T02:59:44Z</time>
      </trkpt>
      <trkpt lat="45.91625" lon="3.41278">
        <ele>345</ele>
        <time>2012-11-24T02:59:48Z</time>
      </trkpt>
      <trkpt lat="45.91695" lon="3.41288">
        <ele>344</ele>
        <time>2012-11-24T02:59:58Z</time>
      </trkpt>
      <trkpt lat="45.9193" lon="3.4125">
        <ele>343</ele>
        <time>2012-11-24T03:00:29Z</time>
      </trkpt>
      <trkpt lat="45.92019" lon="3.41241">
        <ele>343</ele>
        <time>2012-11-24T03:00:41Z</time>
      </trkpt>
      <trkpt lat="45.92081" lon="3.41199">
        <ele>343</ele>
        <time>2012-11-24T03:00:50Z</time>
      </trkpt>
      <trkpt lat="45.92107" lon="3.41191">
        <ele>342</ele>
        <time>2012-11-24T03:00:54Z</time>
      </trkpt>
      <trkpt lat="45.92122" lon="3.41194">
        <ele>342</ele>
        <time>2012-11-24T03:00:56Z</time>
      </trkpt>
      <trkpt lat="45.92166" lon="3.41221">
        <ele>342</ele>
        <time>2012-11-24T03:01:02Z</time>
      </trkpt>
      <trkpt lat="45.92189" lon="3.41253">
        <ele>342</ele>
        <time>2012-11-24T03:01:07Z</time>
      </trkpt>
      <trkpt lat="45.92285" lon="3.4145">
        <ele>341</ele>
        <time>2012-11-24T03:01:29Z</time>
      </trkpt>
      <trkpt lat="45.92348" lon="3.41566">
        <ele>341</ele>
        <time>2012-11-24T03:01:43Z</time>
      </trkpt>
      <trkpt lat="45.92358" lon="3.41593">
        <ele>340</ele>
        <time>2012-11-24T03:01:46Z</time>
      </trkpt>
      <trkpt lat="45.92374" lon="3.41684">
        <ele>339</ele>
        <time>2012-11-24T03:01:54Z</time>
      </trkpt>
      <trkpt lat="45.92381" lon="3.41701">
        <ele>339</ele>
        <time>2012-11-24T03:01:56Z</time>
      </trkpt>
      <trkpt lat="45.92394" lon="3.41716">
        <ele>339</ele>
        <time>2012-11-24T03:02:00Z</time>
      </trkpt>
      <trkpt lat="45.9245" lon="3.41758">
        <ele>341</ele>
        <time>2012-11-24T03:02:13Z</time>
      </trkpt>
      <trkpt lat="45.92482" lon="3.41777">
        <ele>343</ele>
        <time>2012-11-24T03:02:21Z</time>
      </trkpt>
      <trkpt lat="45.92534" lon="3.41798">
        <ele>342</ele>
        <time>2012-11-24T03:02:28Z</time>
      </trkpt>
      <trkpt lat="45.92616" lon="3.41874">
        <ele>342</ele>
        <time>2012-11-24T03:02:41Z</time>
      </trkpt>
      <trkpt lat="45.92674" lon="3.41954">
        <ele>337</ele>
        <time>2012-11-24T03:02:52Z</time>
      </trkpt>
      <trkpt lat="45.92712" lon="3.41958">
        <ele>335</ele>
        <time>2012-11-24T03:02:57Z</time>
      </trkpt>
      <trkpt lat="45.92771" lon="3.41939">
        <ele>330</ele>
        <time>2012-11-24T03:03:05Z</time>
      </trkpt>
      <trkpt lat="45.92882" lon="3.41921">
        <ele>323</ele>
        <time>2012-11-24T03:03:20Z</time>
      </trkpt>
      <trkpt lat="45.92987" lon="3.41927">
        <ele>317</ele>
        <time>2012-11-24T03:03:34Z</time>
      </trkpt>
      <trkpt lat="45.93038" lon="3.41916">
        <ele>315</ele>
        <time>2012-11-24T03:03:41Z</time>
      </trkpt>
      <trkpt lat="45.93074" lon="3.41921">
        <ele>313</ele>
        <time>2012-11-24T03:03:46Z</time>
      </trkpt>
      <trkpt lat="45.93101" lon="3.41932">
        <ele>313</ele>
        <time>2012-11-24T03:03:50Z</time>
      </trkpt>
      <trkpt lat="45.93129" lon="3.41955">
        <ele>312</ele>
        <time>2012-11-24T03:03:54Z</time>
      </trkpt>
      <trkpt lat="45.93152" lon="3.41981">
        <ele>312</ele>
        <time>2012-11-24T03:03:58Z</time>
      </trkpt>
      <trkpt lat="45.93171" lon="3.42015">
        <ele>312</ele>
        <time>2012-11-24T03:04:02Z</time>
      </trkpt>
      <trkpt lat="45.93193" lon="3.42077">
        <ele>312</ele>
        <time>2012-11-24T03:04:08Z</time>
      </trkpt>
      <trkpt lat="45.93212" lon="3.42108">
        <ele>312</ele>
        <time>2012-11-24T03:04:12Z</time>
      </trkpt>
      <trkpt lat="45.93233" lon="3.4213">
        <ele>312</ele>
        <time>2012-11-24T03:04:16Z</time>
      </trkpt>
      <trkpt lat="45.93302" lon="3.42173">
        <ele>309</ele>
        <time>2012-11-24T03:04:26Z</time>
      </trkpt>
      <trkpt lat="45.93372" lon="3.42232">
        <ele>306</ele>
        <time>2012-11-24T03:04:37Z</time>
      </trkpt>
      <trkpt lat="45.93448" lon="3.4224">
        <ele>305</ele>
        <time>2012-11-24T03:04:47Z</time>
      </trkpt>
      <trkpt lat="45.93491" lon="3.42258">
        <ele>305</ele>
        <time>2012-11-24T03:04:53Z</time>
      </trkpt>
      <trkpt lat="45.93514" lon="3.42285">
        <ele>304</ele>
        <time>2012-11-24T03:04:57Z</time>
      </trkpt>
      <trkpt lat="45.93548" lon="3.42349">
        <ele>304</ele>
        <time>2012-11-24T03:05:04Z</time>
      </trkpt>
      <trkpt lat="45.9358" lon="3.42396">
        <ele>304</ele>
        <time>2012-11-24T03:05:10Z</time>
      </trkpt>
      <trkpt lat="45.93704" lon="3.42498">
        <ele>302</ele>
        <time>2012-11-24T03:05:29Z</time>
      </trkpt>
      <trkpt lat="45.93726" lon="3.42509">
        <ele>302</ele>
        <time>2012-11-24T03:05:33Z</time>
      </trkpt>
      <trkpt lat="45.93766" lon="3.42518">
        <ele>302</ele>
        <time>2012-11-24T03:05:39Z</time>
      </trkpt>
      <trkpt lat="45.93828" lon="3.4252">
        <ele>303</ele>
        <time>2012-11-24T03:05:49Z</time>
      </trkpt>
      <trkpt lat="45.93852" lon="3.42533">
        <ele>302</ele>
        <time>2012-11-24T03:05:52Z</time>
      </trkpt>
      <trkpt lat="45.9388" lon="3.42579">
        <ele>300</ele>
        <time>2012-11-24T03:05:58Z</time>
      </trkpt>
      <trkpt lat="45.9392" lon="3.42708">
        <ele>297</ele>
        <time>2012-11-24T03:06:11Z</time>
      </trkpt>
      <trkpt lat="45.93973" lon="3.42789">
        <ele>294</ele>
        <time>2012-11-24T03:06:21Z</time>
      </trkpt>
      <trkpt lat="45.94016" lon="3.42817">
        <ele>293</ele>
        <time>2012-11-24T03:06:27Z</time>
      </trkpt>
      <trkpt lat="45.94091" lon="3.42876">
        <ele>290</ele>
        <time>2012-11-24T03:06:39Z</time>
      </trkpt>
      <trkpt lat="45.9416" lon="3.4288">
        <ele>289</ele>
        <time>2012-11-24T03:06:48Z</time>
      </trkpt>
      <trkpt lat="45.94182" lon="3.42886">
        <ele>288</ele>
        <time>2012-11-24T03:06:51Z</time>
      </trkpt>
      <trkpt lat="45.94195" lon="3.42895">
        <ele>288</ele>
        <time>2012-11-24T03:06:53Z</time>
      </trkpt>
      <trkpt lat="45.9425" lon="3.42991">
        <ele>286</ele>
        <time>2012-11-24T03:07:05Z</time>
      </trkpt>
      <trkpt lat="45.94354" lon="3.43101">
        <ele>285</ele>
        <time>2012-11-24T03:07:22Z</time>
      </trkpt>
      <trkpt lat="45.94364" lon="3.43126">
        <ele>285</ele>
        <time>2012-11-24T03:07:25Z</time>
      </trkpt>
      <trkpt lat="45.94388" lon="3.43232">
        <ele>286</ele>
        <time>2012-11-24T03:07:37Z</time>
      </trkpt>
      <trkpt lat="45.94397" lon="3.43247">
        <ele>285</ele>
        <time>2012-11-24T03:07:39Z</time>
      </trkpt>
      <trkpt lat="45.94434" lon="3.43286">
        <ele>284</ele>
        <time>2012-11-24T03:07:45Z</time>
      </trkpt>
      <trkpt lat="45.94444" lon="3.4329">
        <ele>284</ele>
        <time>2012-11-24T03:07:47Z</time>
      </trkpt>
      <trkpt lat="45.94454" lon="3.43287">
        <ele>284</ele>
        <time>2012-11-24T03:07:48Z</time>
      </trkpt>
      <trkpt lat="45.94524" lon="3.43229">
        <ele>282</ele>
        <time>2012-11-24T03:07:59Z</time>
      </trkpt>
      <trkpt lat="45.94667" lon="3.43297">
        <ele>277</ele>
        <time>2012-11-24T03:08:19Z</time>
      </trkpt>
      <trkpt lat="45.94682" lon="3.43316">
        <ele>276</ele>
        <time>2012-11-24T03:08:22Z</time>
      </trkpt>
      <trkpt lat="45.94693" lon="3.43341">
        <ele>276</ele>
        <time>2012-11-24T03:08:24Z</time>
      </trkpt>
      <trkpt lat="45.9472" lon="3.43479">
        <ele>274</ele>
        <time>2012-11-24T03:08:38Z</time>
      </trkpt>
      <trkpt lat="45.94724" lon="3.43536">
        <ele>273</ele>
        <time>2012-11-24T03:08:43Z</time>
      </trkpt>
      <trkpt lat="45.94723" lon="3.43618">
        <ele>273</ele>
        <time>2012-11-24T03:08:51Z</time>
      </trkpt>
      <trkpt lat="45.94712" lon="3.43741">
        <ele>273</ele>
        <time>2012-11-24T03:09:04Z</time>
      </trkpt>
      <trkpt lat="45.9472" lon="3.43795">
        <ele>274</ele>
        <time>2012-11-24T03:09:10Z</time>
      </trkpt>
      <trkpt lat="45.9475" lon="3.43902">
        <ele>274</ele>
        <time>2012-11-24T03:09:20Z</time>
      </trkpt>
      <trkpt lat="45.94753" lon="3.43937">
        <ele>274</ele>
        <time>2012-11-24T03:09:24Z</time>
      </trkpt>
      <trkpt lat="45.94749" lon="3.43983">
        <ele>274</ele>
        <time>2012-11-24T03:09:28Z</time>
      </trkpt>
      <trkpt lat="45.94734" lon="3.4407">
        <ele>274</ele>
        <time>2012-11-24T03:09:36Z</time>
      </trkpt>
      <trkpt lat="45.9473" lon="3.44122">
        <ele>273</ele>
        <time>2012-11-24T03:09:41Z</time>
      </trkpt>
      <trkpt lat="45.94731" lon="3.44209">
        <ele>273</ele>
        <time>2012-11-24T03:09:49Z</time>
      </trkpt>
      <trkpt lat="45.94738" lon="3.44275">
        <ele>273</ele>
        <time>2012-11-24T03:09:56Z</time>
      </trkpt>
      <trkpt lat="45.94753" lon="3.44348">
        <ele>274</ele>
        <time>2012-11-24T03:10:05Z</time>
      </trkpt>
      <trkpt lat="45.94805" lon="3.44541">
        <ele>273</ele>
        <time>2012-11-24T03:10:24Z</time>
      </trkpt>
      <trkpt lat="45.94834" lon="3.44627">
        <ele>273</ele>
        <time>2012-11-24T03:10:34Z</time>
      </trkpt>
      <trkpt lat="45.94959" lon="3.44886">
        <ele>275</ele>
        <time>2012-11-24T03:11:07Z</time>
      </trkpt>
      <trkpt lat="45.94993" lon="3.4493">
        <ele>275</ele>
        <time>2012-11-24T03:11:13Z</time>
      </trkpt>
      <trkpt lat="45.95063" lon="3.44971">
        <ele>275</ele>
        <time>2012-11-24T03:11:23Z</time>
      </trkpt>
      <trkpt lat="45.95099" lon="3.45004">
        <ele>275</ele>
        <time>2012-11-24T03:11:29Z</time>
      </trkpt>
      <trkpt lat="45.95124" lon="3.45043">
        <ele>275</ele>
        <time>2012-11-24T03:11:35Z</time>
      </trkpt>
      <trkpt lat="45.95186" lon="3.45173">
        <ele>276</ele>
        <time>2012-11-24T03:11:51Z</time>
      </trkpt>
      <trkpt lat="45.95212" lon="3.45209">
        <ele>275</ele>
        <time>2012-11-24T03:11:56Z</time>
      </trkpt>
      <trkpt lat="45.95267" lon="3.4525">
        <ele>274</ele>
        <time>2012-11-24T03:12:04Z</time>
      </trkpt>
      <trkpt lat="45.95475" lon="3.4535">
        <ele>274</ele>
        <time>2012-11-24T03:12:33Z</time>
      </trkpt>
      <trkpt lat="45.95514" lon="3.45382">
        <ele>274</ele>
        <time>2012-11-24T03:12:39Z</time>
      </trkpt>
      <trkpt lat="45.95535" lon="3.45407">
        <ele>274</ele>
        <time>2012-11-24T03:12:43Z</time>
      </trkpt>
      <trkpt lat="45.95556" lon="3.45436">
        <ele>274</ele>
        <time>2012-11-24T03:12:47Z</time>
      </trkpt>
      <trkpt lat="45.95579" lon="3.45484">
        <ele>273</ele>
        <time>2012-11-24T03:12:52Z</time>
      </trkpt>
      <trkpt lat="45.95652" lon="3.45756">
        <ele>272</ele>
        <time>2012-11-24T03:13:19Z</time>
      </trkpt>
      <trkpt lat="45.9568" lon="3.45817">
        <ele>272</ele>
        <time>2012-11-24T03:13:26Z</time>
      </trkpt>
      <trkpt lat="45.95713" lon="3.45859">
        <ele>272</ele>
        <time>2012-11-24T03:13:32Z</time>
      </trkpt>
      <trkpt lat="45.95924" lon="3.4605">
        <ele>273</ele>
        <time>2012-11-24T03:14:08Z</time>
      </trkpt>
      <trkpt lat="45.95967" lon="3.46082">
        <ele>273</ele>
        <time>2012-11-24T03:14:15Z</time>
      </trkpt>
      <trkpt lat="45.96096" lon="3.46162">
        <ele>274</ele>
        <time>2012-11-24T03:14:35Z</time>
      </trkpt>
      <trkpt lat="45.96229" lon="3.4626">
        <ele>271</ele>
        <time>2012-11-24T03:14:55Z</time>
      </trkpt>
      <trkpt lat="45.96305" lon="3.46322">
        <ele>271</ele>
        <time>2012-11-24T03:15:08Z</time>
      </trkpt>
      <trkpt lat="45.96108" lon="3.46836">
        <ele>273</ele>
        <time>2012-11-24T03:16:06Z</time>
      </trkpt>
      <trkpt lat="45.96095" lon="3.46854">
        <ele>273</ele>
        <time>2012-11-24T03:16:10Z</time>
      </trkpt>
      <trkpt lat="45.96076" lon="3.46863">
        <ele>273</ele>
        <time>2012-11-24T03:16:13Z</time>
      </trkpt>
      <trkpt lat="45.96071" lon="3.4687">
        <ele>273</ele>
        <time>2012-11-24T03:16:15Z</time>
      </trkpt>
      <trkpt lat="45.9607" lon="3.46883">
        <ele>274</ele>
        <time>2012-11-24T03:16:16Z</time>
      </trkpt>
      <trkpt lat="45.96075" lon="3.46893">
        <ele>274</ele>
        <time>2012-11-24T03:16:18Z</time>
      </trkpt>
      <trkpt lat="45.96075" lon="3.46905">
        <ele>274</ele>
        <time>2012-11-24T03:16:19Z</time>
      </trkpt>
      <trkpt lat="45.96067" lon="3.4694">
        <ele>275</ele>
        <time>2012-11-24T03:16:24Z</time>
      </trkpt>
      <trkpt lat="45.96067" lon="3.4694">
        <ele>275</ele>
        <time>2012-11-24T03:16:25Z</time>
      </trkpt>
      <trkpt lat="45.96067" lon="3.4694">
        <ele>275</ele>
        <time>2012-11-24T03:16:26Z</time>
      </trkpt>
      <trkpt lat="45.9605" lon="3.46988">
        <ele>276</ele>
        <time>2012-11-24T03:16:34Z</time>
      </trkpt>
      <trkpt lat="45.9602" lon="3.47123">
        <ele>280</ele>
        <time>2012-11-24T03:16:56Z</time>
      </trkpt>
      <trkpt lat="45.95986" lon="3.47411">
        <ele>283</ele>
        <time>2012-11-24T03:17:30Z</time>
      </trkpt>
      <trkpt lat="45.96004" lon="3.47411">
        <ele>282</ele>
        <time>2012-11-24T03:17:33Z</time>
      </trkpt>
      <trkpt lat="45.96158" lon="3.47471">
        <ele>281</ele>
        <time>2012-11-24T03:17:54Z</time>
      </trkpt>
      <trkpt lat="45.96974" lon="3.47953">
        <ele>284</ele>
        <time>2012-11-24T03:19:59Z</time>
      </trkpt>
      <trkpt lat="45.97204" lon="3.48005">
        <ele>287</ele>
        <time>2012-11-24T03:20:38Z</time>
      </trkpt>
      <trkpt lat="45.97295" lon="3.47999">
        <ele>284</ele>
        <time>2012-11-24T03:20:50Z</time>
      </trkpt>
      <trkpt lat="45.97345" lon="3.48012">
        <ele>283</ele>
        <time>2012-11-24T03:20:56Z</time>
      </trkpt>
      <trkpt lat="45.97599" lon="3.48185">
        <ele>281</ele>
        <time>2012-11-24T03:21:34Z</time>
      </trkpt>
      <trkpt lat="45.9766" lon="3.4822">
        <ele>281</ele>
        <time>2012-11-24T03:21:43Z</time>
      </trkpt>
      <trkpt lat="45.98535" lon="3.48549">
        <ele>281</ele>
        <time>2012-11-24T03:23:44Z</time>
      </trkpt>
      <trkpt lat="45.98578" lon="3.48558">
        <ele>281</ele>
        <time>2012-11-24T03:23:50Z</time>
      </trkpt>
      <trkpt lat="45.98636" lon="3.48557">
        <ele>282</ele>
        <time>2012-11-24T03:24:00Z</time>
      </trkpt>
      <trkpt lat="45.98666" lon="3.48566">
        <ele>283</ele>
        <time>2012-11-24T03:24:07Z</time>
      </trkpt>
      <trkpt lat="45.98698" lon="3.48592">
        <ele>284</ele>
        <time>2012-11-24T03:24:16Z</time>
      </trkpt>
      <trkpt lat="45.9875" lon="3.48657">
        <ele>288</ele>
        <time>2012-11-24T03:24:32Z</time>
      </trkpt>
      <trkpt lat="45.98773" lon="3.48675">
        <ele>287</ele>
        <time>2012-11-24T03:24:36Z</time>
      </trkpt>
      <trkpt lat="45.98797" lon="3.48684">
        <ele>286</ele>
        <time>2012-11-24T03:24:39Z</time>
      </trkpt>
      <trkpt lat="45.98821" lon="3.48688">
        <ele>285</ele>
        <time>2012-11-24T03:24:42Z</time>
      </trkpt>
      <trkpt lat="45.98853" lon="3.48683">
        <ele>285</ele>
        <time>2012-11-24T03:24:46Z</time>
      </trkpt>
      <trkpt lat="45.98928" lon="3.48649">
        <ele>282</ele>
        <time>2012-11-24T03:24:57Z</time>
      </trkpt>
      <trkpt lat="45.98962" lon="3.48641">
        <ele>282</ele>
        <time>2012-11-24T03:25:02Z</time>
      </trkpt>
      <trkpt lat="46.00066" lon="3.48503">
        <ele>279</ele>
        <time>2012-11-24T03:27:30Z</time>
      </trkpt>
      <trkpt lat="46.00115" lon="3.48511">
        <ele>278</ele>
        <time>2012-11-24T03:27:36Z</time>
      </trkpt>
      <trkpt lat="46.00549" lon="3.48653">
        <ele>278</ele>
        <time>2012-11-24T03:28:36Z</time>
      </trkpt>
      <trkpt lat="46.00753" lon="3.48713">
        <ele>278</ele>
        <time>2012-11-24T03:29:03Z</time>
      </trkpt>
      <trkpt lat="46.00788" lon="3.48718">
        <ele>278</ele>
        <time>2012-11-24T03:29:09Z</time>
      </trkpt>
      <trkpt lat="46.00834" lon="3.48745">
        <ele>279</ele>
        <time>2012-11-24T03:29:17Z</time>
      </trkpt>
      <trkpt lat="46.01141" lon="3.48843">
        <ele>283</ele>
        <time>2012-11-24T03:30:09Z</time>
      </trkpt>
      <trkpt lat="46.01527" lon="3.48932">
        <ele>280</ele>
        <time>2012-11-24T03:31:01Z</time>
      </trkpt>
      <trkpt lat="46.01546" lon="3.48953">
        <ele>280</ele>
        <time>2012-11-24T03:31:06Z</time>
      </trkpt>
      <trkpt lat="46.01695" lon="3.49038">
        <ele>286</ele>
        <time>2012-11-24T03:31:40Z</time>
      </trkpt>
      <trkpt lat="46.01765" lon="3.49074">
        <ele>288</ele>
        <time>2012-11-24T03:31:55Z</time>
      </trkpt>
      <trkpt lat="46.01836" lon="3.49103">
        <ele>290</ele>
        <time>2012-11-24T03:32:09Z</time>
      </trkpt>
      <trkpt lat="46.0191" lon="3.49186">
        <ele>291</ele>
        <time>2012-11-24T03:32:24Z</time>
      </trkpt>
      <trkpt lat="46.01941" lon="3.49237">
        <ele>291</ele>
        <time>2012-11-24T03:32:33Z</time>
      </trkpt>
      <trkpt lat="46.01992" lon="3.49386">
        <ele>294</ele>
        <time>2012-11-24T03:32:53Z</time>
      </trkpt>
      <trkpt lat="46.0204" lon="3.49488">
        <ele>296</ele>
        <time>2012-11-24T03:33:10Z</time>
      </trkpt>
      <trkpt lat="46.02087" lon="3.49623">
        <ele>299</ele>
        <time>2012-11-24T03:33:31Z</time>
      </trkpt>
      <trkpt lat="46.02104" lon="3.49613">
        <ele>298</ele>
        <time>2012-11-24T03:33:33Z</time>
      </trkpt>
      <trkpt lat="46.02116" lon="3.49594">
        <ele>298</ele>
        <time>2012-11-24T03:33:36Z</time>
      </trkpt>
      <trkpt lat="46.02125" lon="3.49496">
        <ele>298</ele>
        <time>2012-11-24T03:33:45Z</time>
      </trkpt>
      <trkpt lat="46.02167" lon="3.49347">
        <ele>295</ele>
        <time>2012-11-24T03:34:00Z</time>
      </trkpt>
      <trkpt lat="46.022" lon="3.49346">
        <ele>295</ele>
        <time>2012-11-24T03:34:06Z</time>
      </trkpt>
      <trkpt lat="46.02246" lon="3.49336">
        <ele>297</ele>
        <time>2012-11-24T03:34:15Z</time>
      </trkpt>
      <trkpt lat="46.0231" lon="3.49313">
        <ele>299</ele>
        <time>2012-11-24T03:34:29Z</time>
      </trkpt>
      <trkpt lat="46.02465" lon="3.49278">
        <ele>296</ele>
        <time>2012-11-24T03:34:50Z</time>
      </trkpt>
      <trkpt lat="46.02523" lon="3.49274">
        <ele>296</ele>
        <time>2012-11-24T03:34:57Z</time>
      </trkpt>
      <trkpt lat="46.02561" lon="3.4928">
        <ele>296</ele>
        <time>2012-11-24T03:35:02Z</time>
      </trkpt>
      <trkpt lat="46.02586" lon="3.49294">
        <ele>296</ele>
        <time>2012-11-24T03:35:08Z</time>
      </trkpt>
      <trkpt lat="46.02661" lon="3.49369">
        <ele>300</ele>
        <time>2012-11-24T03:35:28Z</time>
      </trkpt>
      <trkpt lat="46.02679" lon="3.4938">
        <ele>299</ele>
        <time>2012-11-24T03:35:30Z</time>
      </trkpt>
      <trkpt lat="46.02697" lon="3.49387">
        <ele>299</ele>
        <time>2012-11-24T03:35:33Z</time>
      </trkpt>
      <trkpt lat="46.0274" lon="3.49386">
        <ele>299</ele>
        <time>2012-11-24T03:35:39Z</time>
      </trkpt>
      <trkpt lat="46.02769" lon="3.49392">
        <ele>299</ele>
        <time>2012-11-24T03:35:43Z</time>
      </trkpt>
      <trkpt lat="46.02842" lon="3.49443">
        <ele>300</ele>
        <time>2012-11-24T03:35:57Z</time>
      </trkpt>
      <trkpt lat="46.02934" lon="3.49497">
        <ele>302</ele>
        <time>2012-11-24T03:36:14Z</time>
      </trkpt>
      <trkpt lat="46.02988" lon="3.49545">
        <ele>304</ele>
        <time>2012-11-24T03:36:29Z</time>
      </trkpt>
      <trkpt lat="46.03023" lon="3.49613">
        <ele>307</ele>
        <time>2012-11-24T03:36:42Z</time>
      </trkpt>
      <trkpt lat="46.03046" lon="3.4963">
        <ele>307</ele>
        <time>2012-11-24T03:36:46Z</time>
      </trkpt>
      <trkpt lat="46.03089" lon="3.4962">
        <ele>307</ele>
        <time>2012-11-24T03:36:52Z</time>
      </trkpt>
      <trkpt lat="46.03194" lon="3.4958">
        <ele>307</ele>
        <time>2012-11-24T03:37:06Z</time>
      </trkpt>
      <trkpt lat="46.03324" lon="3.49582">
        <ele>316</ele>
        <time>2012-11-24T03:37:45Z</time>
      </trkpt>
      <trkpt lat="46.03383" lon="3.49538">
        <ele>315</ele>
        <time>2012-11-24T03:37:54Z</time>
      </trkpt>
      <trkpt lat="46.03486" lon="3.49523">
        <ele>314</ele>
        <time>2012-11-24T03:38:08Z</time>
      </trkpt>
      <trkpt lat="46.03499" lon="3.49529">
        <ele>313</ele>
        <time>2012-11-24T03:38:10Z</time>
      </trkpt>
      <trkpt lat="46.03533" lon="3.49571">
        <ele>313</ele>
        <time>2012-11-24T03:38:16Z</time>
      </trkpt>
      <trkpt lat="46.03553" lon="3.49581">
        <ele>313</ele>
        <time>2012-11-24T03:38:18Z</time>
      </trkpt>
      <trkpt lat="46.03578" lon="3.49578">
        <ele>313</ele>
        <time>2012-11-24T03:38:22Z</time>
      </trkpt>
      <trkpt lat="46.03665" lon="3.49536">
        <ele>308</ele>
        <time>2012-11-24T03:38:34Z</time>
      </trkpt>
      <trkpt lat="46.03681" lon="3.49538">
        <ele>308</ele>
        <time>2012-11-24T03:38:36Z</time>
      </trkpt>
      <trkpt lat="46.0369" lon="3.49548">
        <ele>308</ele>
        <time>2012-11-24T03:38:38Z</time>
      </trkpt>
      <trkpt lat="46.03694" lon="3.49566">
        <ele>308</ele>
        <time>2012-11-24T03:38:40Z</time>
      </trkpt>
      <trkpt lat="46.03687" lon="3.49615">
        <ele>308</ele>
        <time>2012-11-24T03:38:45Z</time>
      </trkpt>
      <trkpt lat="46.0369" lon="3.49634">
        <ele>308</ele>
        <time>2012-11-24T03:38:48Z</time>
      </trkpt>
      <trkpt lat="46.03698" lon="3.49653">
        <ele>308</ele>
        <time>2012-11-24T03:38:50Z</time>
      </trkpt>
      <trkpt lat="46.03715" lon="3.49666">
        <ele>309</ele>
        <time>2012-11-24T03:38:53Z</time>
      </trkpt>
      <trkpt lat="46.03742" lon="3.49666">
        <ele>309</ele>
        <time>2012-11-24T03:38:58Z</time>
      </trkpt>
      <trkpt lat="46.03827" lon="3.49626">
        <ele>312</ele>
        <time>2012-11-24T03:39:16Z</time>
      </trkpt>
      <trkpt lat="46.03838" lon="3.49625">
        <ele>312</ele>
        <time>2012-11-24T03:39:19Z</time>
      </trkpt>
      <trkpt lat="46.03864" lon="3.4964">
        <ele>315</ele>
        <time>2012-11-24T03:39:29Z</time>
      </trkpt>
      <trkpt lat="46.03934" lon="3.49759">
        <ele>325</ele>
        <time>2012-11-24T03:40:06Z</time>
      </trkpt>
      <trkpt lat="46.03977" lon="3.49849">
        <ele>332</ele>
        <time>2012-11-24T03:40:34Z</time>
      </trkpt>
      <trkpt lat="46.03983" lon="3.49871">
        <ele>334</ele>
        <time>2012-11-24T03:40:40Z</time>
      </trkpt>
      <trkpt lat="46.03976" lon="3.49936">
        <ele>334</ele>
        <time>2012-11-24T03:40:49Z</time>
      </trkpt>
      <trkpt lat="46.03978" lon="3.4996">
        <ele>335</ele>
        <time>2012-11-24T03:40:52Z</time>
      </trkpt>
      <trkpt lat="46.03984" lon="3.49975">
        <ele>335</ele>
        <time>2012-11-24T03:40:54Z</time>
      </trkpt>
      <trkpt lat="46.03996" lon="3.49985">
        <ele>335</ele>
        <time>2012-11-24T03:40:57Z</time>
      </trkpt>
      <trkpt lat="46.04009" lon="3.49983">
        <ele>336</ele>
        <time>2012-11-24T03:40:59Z</time>
      </trkpt>
      <trkpt lat="46.0403" lon="3.49961">
        <ele>336</ele>
        <time>2012-11-24T03:41:04Z</time>
      </trkpt>
      <trkpt lat="46.04036" lon="3.49946">
        <ele>337</ele>
        <time>2012-11-24T03:41:06Z</time>
      </trkpt>
      <trkpt lat="46.04042" lon="3.49908">
        <ele>337</ele>
        <time>2012-11-24T03:41:11Z</time>
      </trkpt>
      <trkpt lat="46.04052" lon="3.49882">
        <ele>338</ele>
        <time>2012-11-24T03:41:15Z</time>
      </trkpt>
      <trkpt lat="46.04066" lon="3.49864">
        <ele>338</ele>
        <time>2012-11-24T03:41:19Z</time>
      </trkpt>
      <trkpt lat="46.04089" lon="3.49852">
        <ele>339</ele>
        <time>2012-11-24T03:41:23Z</time>
      </trkpt>
      <trkpt lat="46.04154" lon="3.49846">
        <ele>342</ele>
        <time>2012-11-24T03:41:41Z</time>
      </trkpt>
      <trkpt lat="46.04211" lon="3.4986">
        <ele>346</ele>
        <time>2012-11-24T03:41:56Z</time>
      </trkpt>
      <trkpt lat="46.04227" lon="3.49876">
        <ele>349</ele>
        <time>2012-11-24T03:42:07Z</time>
      </trkpt>
      <trkpt lat="46.0424" lon="3.49938">
        <ele>356</ele>
        <time>2012-11-24T03:42:31Z</time>
      </trkpt>
      <trkpt lat="46.04249" lon="3.49956">
        <ele>359</ele>
        <time>2012-11-24T03:42:39Z</time>
      </trkpt>
      <trkpt lat="46.04268" lon="3.49968">
        <ele>363</ele>
        <time>2012-11-24T03:42:51Z</time>
      </trkpt>
      <trkpt lat="46.04327" lon="3.49981">
        <ele>364</ele>
        <time>2012-11-24T03:43:03Z</time>
      </trkpt>
      <trkpt lat="46.04339" lon="3.49975">
        <ele>365</ele>
        <time>2012-11-24T03:43:05Z</time>
      </trkpt>
      <trkpt lat="46.04367" lon="3.49942">
        <ele>366</ele>
        <time>2012-11-24T03:43:12Z</time>
      </trkpt>
      <trkpt lat="46.04396" lon="3.4994">
        <ele>366</ele>
        <time>2012-11-24T03:43:17Z</time>
      </trkpt>
      <trkpt lat="46.04407" lon="3.49932">
        <ele>366</ele>
        <time>2012-11-24T03:43:19Z</time>
      </trkpt>
      <trkpt lat="46.04414" lon="3.4991">
        <ele>366</ele>
        <time>2012-11-24T03:43:21Z</time>
      </trkpt>
      <trkpt lat="46.04417" lon="3.49871">
        <ele>366</ele>
        <time>2012-11-24T03:43:26Z</time>
      </trkpt>
      <trkpt lat="46.04431" lon="3.49849">
        <ele>367</ele>
        <time>2012-11-24T03:43:29Z</time>
      </trkpt>
      <trkpt lat="46.04454" lon="3.49837">
        <ele>368</ele>
        <time>2012-11-24T03:43:35Z</time>
      </trkpt>
      <trkpt lat="46.04478" lon="3.49835">
        <ele>369</ele>
        <time>2012-11-24T03:43:40Z</time>
      </trkpt>
      <trkpt lat="46.04545" lon="3.49863">
        <ele>372</ele>
        <time>2012-11-24T03:43:57Z</time>
      </trkpt>
      <trkpt lat="46.04566" lon="3.49879">
        <ele>375</ele>
        <time>2012-11-24T03:44:08Z</time>
      </trkpt>
      <trkpt lat="46.04612" lon="3.49929">
        <ele>383</ele>
        <time>2012-11-24T03:44:35Z</time>
      </trkpt>
      <trkpt lat="46.04628" lon="3.49979">
        <ele>389</ele>
        <time>2012-11-24T03:44:53Z</time>
      </trkpt>
      <trkpt lat="46.04639" lon="3.49991">
        <ele>389</ele>
        <time>2012-11-24T03:44:56Z</time>
      </trkpt>
      <trkpt lat="46.0466" lon="3.49993">
        <ele>389</ele>
        <time>2012-11-24T03:44:59Z</time>
      </trkpt>
      <trkpt lat="46.04701" lon="3.49969">
        <ele>390</ele>
        <time>2012-11-24T03:45:07Z</time>
      </trkpt>
      <trkpt lat="46.04758" lon="3.49964">
        <ele>391</ele>
        <time>2012-11-24T03:45:16Z</time>
      </trkpt>
      <trkpt lat="46.04773" lon="3.49971">
        <ele>393</ele>
        <time>2012-11-24T03:45:25Z</time>
      </trkpt>
      <trkpt lat="46.0479" lon="3.49996">
        <ele>397</ele>
        <time>2012-11-24T03:45:38Z</time>
      </trkpt>
      <trkpt lat="46.04809" lon="3.50089">
        <ele>409</ele>
        <time>2012-11-24T03:46:14Z</time>
      </trkpt>
      <trkpt lat="46.04824" lon="3.50104">
        <ele>407</ele>
        <time>2012-11-24T03:46:16Z</time>
      </trkpt>
      <trkpt lat="46.04843" lon="3.50097">
        <ele>405</ele>
        <time>2012-11-24T03:46:19Z</time>
      </trkpt>
      <trkpt lat="46.04857" lon="3.50046">
        <ele>402</ele>
        <time>2012-11-24T03:46:24Z</time>
      </trkpt>
      <trkpt lat="46.04871" lon="3.50017">
        <ele>400</ele>
        <time>2012-11-24T03:46:27Z</time>
      </trkpt>
      <trkpt lat="46.04877" lon="3.50009">
        <ele>399</ele>
        <time>2012-11-24T03:46:28Z</time>
      </trkpt>
      <trkpt lat="46.04907" lon="3.49992">
        <ele>397</ele>
        <time>2012-11-24T03:46:33Z</time>
      </trkpt>
      <trkpt lat="46.0492" lon="3.49992">
        <ele>397</ele>
        <time>2012-11-24T03:46:37Z</time>
      </trkpt>
      <trkpt lat="46.05023" lon="3.50023">
        <ele>405</ele>
        <time>2012-11-24T03:47:08Z</time>
      </trkpt>
      <trkpt lat="46.05038" lon="3.50037">
        <ele>405</ele>
        <time>2012-11-24T03:47:13Z</time>
      </trkpt>
      <trkpt lat="46.0506" lon="3.50086">
        <ele>408</ele>
        <time>2012-11-24T03:47:23Z</time>
      </trkpt>
      <trkpt lat="46.05073" lon="3.50097">
        <ele>409</ele>
        <time>2012-11-24T03:47:27Z</time>
      </trkpt>
      <trkpt lat="46.05088" lon="3.50093">
        <ele>409</ele>
        <time>2012-11-24T03:47:31Z</time>
      </trkpt>
      <trkpt lat="46.05154" lon="3.5004">
        <ele>414</ele>
        <time>2012-11-24T03:47:51Z</time>
      </trkpt>
      <trkpt lat="46.05173" lon="3.50035">
        <ele>415</ele>
        <time>2012-11-24T03:47:58Z</time>
      </trkpt>
      <trkpt lat="46.052" lon="3.50046">
        <ele>417</ele>
        <time>2012-11-24T03:48:07Z</time>
      </trkpt>
      <trkpt lat="46.0523" lon="3.50084">
        <ele>421</ele>
        <time>2012-11-24T03:48:20Z</time>
      </trkpt>
      <trkpt lat="46.0523" lon="3.50084">
        <ele>421</ele>
        <time>2012-11-24T03:48:21Z</time>
      </trkpt>
      <trkpt lat="46.05246" lon="3.50104">
        <ele>423</ele>
        <time>2012-11-24T03:48:28Z</time>
      </trkpt>
      <trkpt lat="46.05265" lon="3.50118">
        <ele>424</ele>
        <time>2012-11-24T03:48:34Z</time>
      </trkpt>
      <trkpt lat="46.05361" lon="3.50142">
        <ele>430</ele>
        <time>2012-11-24T03:49:01Z</time>
      </trkpt>
      <trkpt lat="46.05373" lon="3.50152">
        <ele>430</ele>
        <time>2012-11-24T03:49:05Z</time>
      </trkpt>
      <trkpt lat="46.05381" lon="3.50167">
        <ele>431</ele>
        <time>2012-11-24T03:49:08Z</time>
      </trkpt>
      <trkpt lat="46.05381" lon="3.50198">
        <ele>432</ele>
        <time>2012-11-24T03:49:13Z</time>
      </trkpt>
      <trkpt lat="46.0537" lon="3.5026">
        <ele>434</ele>
        <time>2012-11-24T03:49:24Z</time>
      </trkpt>
      <trkpt lat="46.05368" lon="3.50334">
        <ele>437</ele>
        <time>2012-11-24T03:49:37Z</time>
      </trkpt>
      <trkpt lat="46.05357" lon="3.50433">
        <ele>444</ele>
        <time>2012-11-24T03:50:05Z</time>
      </trkpt>
      <trkpt lat="46.05352" lon="3.50458">
        <ele>446</ele>
        <time>2012-11-24T03:50:13Z</time>
      </trkpt>
      <trkpt lat="46.05334" lon="3.50502">
        <ele>451</ele>
        <time>2012-11-24T03:50:27Z</time>
      </trkpt>
      <trkpt lat="46.05327" lon="3.50531">
        <ele>451</ele>
        <time>2012-11-24T03:50:30Z</time>
      </trkpt>
      <trkpt lat="46.05329" lon="3.50604">
        <ele>451</ele>
        <time>2012-11-24T03:50:37Z</time>
      </trkpt>
      <trkpt lat="46.05338" lon="3.50628">
        <ele>451</ele>
        <time>2012-11-24T03:50:39Z</time>
      </trkpt>
      <trkpt lat="46.05359" lon="3.50639">
        <ele>451</ele>
        <time>2012-11-24T03:50:42Z</time>
      </trkpt>
      <trkpt lat="46.05376" lon="3.50637">
        <ele>451</ele>
        <time>2012-11-24T03:50:46Z</time>
      </trkpt>
      <trkpt lat="46.05486" lon="3.50598">
        <ele>454</ele>
        <time>2012-11-24T03:51:07Z</time>
      </trkpt>
      <trkpt lat="46.05532" lon="3.50572">
        <ele>456</ele>
        <time>2012-11-24T03:51:19Z</time>
      </trkpt>
      <trkpt lat="46.05554" lon="3.50565">
        <ele>457</ele>
        <time>2012-11-24T03:51:24Z</time>
      </trkpt>
      <trkpt lat="46.05575" lon="3.50571">
        <ele>458</ele>
        <time>2012-11-24T03:51:29Z</time>
      </trkpt>
      <trkpt lat="46.05617" lon="3.50606">
        <ele>460</ele>
        <time>2012-11-24T03:51:41Z</time>
      </trkpt>
      <trkpt lat="46.05668" lon="3.5066">
        <ele>463</ele>
        <time>2012-11-24T03:51:56Z</time>
      </trkpt>
      <trkpt lat="46.05718" lon="3.50726">
        <ele>464</ele>
        <time>2012-11-24T03:52:09Z</time>
      </trkpt>
      <trkpt lat="46.05754" lon="3.50809">
        <ele>466</ele>
        <time>2012-11-24T03:52:21Z</time>
      </trkpt>
      <trkpt lat="46.0579" lon="3.50918">
        <ele>472</ele>
        <time>2012-11-24T03:52:48Z</time>
      </trkpt>
      <trkpt lat="46.05806" lon="3.50955">
        <ele>475</ele>
        <time>2012-11-24T03:52:58Z</time>
      </trkpt>
      <trkpt lat="46.05821" lon="3.50974">
        <ele>476</ele>
        <time>2012-11-24T03:53:03Z</time>
      </trkpt>
      <trkpt lat="46.0584" lon="3.50985">
        <ele>477</ele>
        <time>2012-11-24T03:53:08Z</time>
      </trkpt>
      <trkpt lat="46.05898" lon="3.50981">
        <ele>480</ele>
        <time>2012-11-24T03:53:23Z</time>
      </trkpt>
      <trkpt lat="46.05928" lon="3.50993">
        <ele>482</ele>
        <time>2012-11-24T03:53:33Z</time>
      </trkpt>
      <trkpt lat="46.05946" lon="3.51021">
        <ele>484</ele>
        <time>2012-11-24T03:53:41Z</time>
      </trkpt>
      <trkpt lat="46.05957" lon="3.51093">
        <ele>488</ele>
        <time>2012-11-24T03:53:57Z</time>
      </trkpt>
      <trkpt lat="46.05974" lon="3.51118">
        <ele>488</ele>
        <time>2012-11-24T03:54:01Z</time>
      </trkpt>
      <trkpt lat="46.06001" lon="3.51123">
        <ele>488</ele>
        <time>2012-11-24T03:54:06Z</time>
      </trkpt>
      <trkpt lat="46.06042" lon="3.5109">
        <ele>489</ele>
        <time>2012-11-24T03:54:14Z</time>
      </trkpt>
      <trkpt lat="46.06072" lon="3.51078">
        <ele>490</ele>
        <time>2012-11-24T03:54:19Z</time>
      </trkpt>
      <trkpt lat="46.0613" lon="3.51082">
        <ele>493</ele>
        <time>2012-11-24T03:54:36Z</time>
      </trkpt>
      <trkpt lat="46.06145" lon="3.51174">
        <ele>498</ele>
        <time>2012-11-24T03:54:55Z</time>
      </trkpt>
      <trkpt lat="46.06177" lon="3.51249">
        <ele>498</ele>
        <time>2012-11-24T03:55:05Z</time>
      </trkpt>
      <trkpt lat="46.06177" lon="3.51264">
        <ele>498</ele>
        <time>2012-11-24T03:55:06Z</time>
      </trkpt>
      <trkpt lat="46.06107" lon="3.51375">
        <ele>500</ele>
        <time>2012-11-24T03:55:23Z</time>
      </trkpt>
      <trkpt lat="46.06044" lon="3.51458">
        <ele>496</ele>
        <time>2012-11-24T03:55:34Z</time>
      </trkpt>
      <trkpt lat="46.0605" lon="3.51492">
        <ele>495</ele>
        <time>2012-11-24T03:55:38Z</time>
      </trkpt>
      <trkpt lat="46.06056" lon="3.51503">
        <ele>493</ele>
        <time>2012-11-24T03:55:39Z</time>
      </trkpt>
      <trkpt lat="46.06063" lon="3.51604">
        <ele>485</ele>
        <time>2012-11-24T03:55:48Z</time>
      </trkpt>
      <trkpt lat="46.06059" lon="3.5169">
        <ele>479</ele>
        <time>2012-11-24T03:55:56Z</time>
      </trkpt>
      <trkpt lat="46.06052" lon="3.51726">
        <ele>479</ele>
        <time>2012-11-24T03:56:01Z</time>
      </trkpt>
      <trkpt lat="46.06034" lon="3.51754">
        <ele>479</ele>
        <time>2012-11-24T03:56:06Z</time>
      </trkpt>
      <trkpt lat="46.06009" lon="3.51777">
        <ele>480</ele>
        <time>2012-11-24T03:56:11Z</time>
      </trkpt>
      <trkpt lat="46.05996" lon="3.51823">
        <ele>481</ele>
        <time>2012-11-24T03:56:17Z</time>
      </trkpt>
      <trkpt lat="46.0599" lon="3.51833">
        <ele>481</ele>
        <time>2012-11-24T03:56:19Z</time>
      </trkpt>
      <trkpt lat="46.05968" lon="3.51844">
        <ele>482</ele>
        <time>2012-11-24T03:56:25Z</time>
      </trkpt>
      <trkpt lat="46.05931" lon="3.51845">
        <ele>484</ele>
        <time>2012-11-24T03:56:35Z</time>
      </trkpt>
      <trkpt lat="46.05923" lon="3.51852">
        <ele>485</ele>
        <time>2012-11-24T03:56:37Z</time>
      </trkpt>
      <trkpt lat="46.05917" lon="3.5187">
        <ele>485</ele>
        <time>2012-11-24T03:56:41Z</time>
      </trkpt>
      <trkpt lat="46.05921" lon="3.51903">
        <ele>487</ele>
        <time>2012-11-24T03:56:47Z</time>
      </trkpt>
      <trkpt lat="46.05986" lon="3.52068">
        <ele>496</ele>
        <time>2012-11-24T03:57:26Z</time>
      </trkpt>
      <trkpt lat="46.05988" lon="3.5209">
        <ele>496</ele>
        <time>2012-11-24T03:57:30Z</time>
      </trkpt>
      <trkpt lat="46.05983" lon="3.52121">
        <ele>497</ele>
        <time>2012-11-24T03:57:35Z</time>
      </trkpt>
      <trkpt lat="46.05963" lon="3.52189">
        <ele>500</ele>
        <time>2012-11-24T03:57:47Z</time>
      </trkpt>
      <trkpt lat="46.0593" lon="3.52438">
        <ele>508</ele>
        <time>2012-11-24T03:58:30Z</time>
      </trkpt>
      <trkpt lat="46.05914" lon="3.52492">
        <ele>510</ele>
        <time>2012-11-24T03:58:41Z</time>
      </trkpt>
      <trkpt lat="46.05872" lon="3.52581">
        <ele>514</ele>
        <time>2012-11-24T03:59:00Z</time>
      </trkpt>
      <trkpt lat="46.05867" lon="3.52664">
        <ele>515</ele>
        <time>2012-11-24T03:59:10Z</time>
      </trkpt>
      <trkpt lat="46.05856" lon="3.52729">
        <ele>516</ele>
        <time>2012-11-24T03:59:19Z</time>
      </trkpt>
      <trkpt lat="46.05855" lon="3.5277">
        <ele>516</ele>
        <time>2012-11-24T03:59:23Z</time>
      </trkpt>
      <trkpt lat="46.05867" lon="3.52857">
        <ele>517</ele>
        <time>2012-11-24T03:59:33Z</time>
      </trkpt>
      <trkpt lat="46.05865" lon="3.52949">
        <ele>518</ele>
        <time>2012-11-24T03:59:44Z</time>
      </trkpt>
      <trkpt lat="46.05869" lon="3.53012">
        <ele>519</ele>
        <time>2012-11-24T03:59:54Z</time>
      </trkpt>
      <trkpt lat="46.05869" lon="3.53106">
        <ele>522</ele>
        <time>2012-11-24T04:00:08Z</time>
      </trkpt>
      <trkpt lat="46.05882" lon="3.53168">
        <ele>522</ele>
        <time>2012-11-24T04:00:14Z</time>
      </trkpt>
      <trkpt lat="46.05878" lon="3.53204">
        <ele>522</ele>
        <time>2012-11-24T04:00:17Z</time>
      </trkpt>
      <trkpt lat="46.05871" lon="3.53225">
        <ele>522</ele>
        <time>2012-11-24T04:00:20Z</time>
      </trkpt>
      <trkpt lat="46.05799" lon="3.53355">
        <ele>522</ele>
        <time>2012-11-24T04:00:35Z</time>
      </trkpt>
      <trkpt lat="46.05763" lon="3.53374">
        <ele>522</ele>
        <time>2012-11-24T04:00:40Z</time>
      </trkpt>
      <trkpt lat="46.05671" lon="3.5347">
        <ele>522</ele>
        <time>2012-11-24T04:00:55Z</time>
      </trkpt>
      <trkpt lat="46.05626" lon="3.535">
        <ele>518</ele>
        <time>2012-11-24T04:01:02Z</time>
      </trkpt>
      <trkpt lat="46.05597" lon="3.53532">
        <ele>516</ele>
        <time>2012-11-24T04:01:07Z</time>
      </trkpt>
      <trkpt lat="46.05582" lon="3.53539">
        <ele>515</ele>
        <time>2012-11-24T04:01:09Z</time>
      </trkpt>
      <trkpt lat="46.05558" lon="3.53537">
        <ele>515</ele>
        <time>2012-11-24T04:01:12Z</time>
      </trkpt>
      <trkpt lat="46.05548" lon="3.53543">
        <ele>515</ele>
        <time>2012-11-24T04:01:14Z</time>
      </trkpt>
      <trkpt lat="46.05529" lon="3.53584">
        <ele>515</ele>
        <time>2012-11-24T04:01:18Z</time>
      </trkpt>
      <trkpt lat="46.0552" lon="3.53593">
        <ele>515</ele>
        <time>2012-11-24T04:01:20Z</time>
      </trkpt>
      <trkpt lat="46.05486" lon="3.53591">
        <ele>515</ele>
        <time>2012-11-24T04:01:24Z</time>
      </trkpt>
      <trkpt lat="46.05465" lon="3.53601">
        <ele>514</ele>
        <time>2012-11-24T04:01:27Z</time>
      </trkpt>
      <trkpt lat="46.05455" lon="3.53628">
        <ele>513</ele>
        <time>2012-11-24T04:01:30Z</time>
      </trkpt>
      <trkpt lat="46.0546" lon="3.5377">
        <ele>509</ele>
        <time>2012-11-24T04:01:43Z</time>
      </trkpt>
      <trkpt lat="46.05464" lon="3.53797">
        <ele>507</ele>
        <time>2012-11-24T04:01:46Z</time>
      </trkpt>
      <trkpt lat="46.05475" lon="3.53831">
        <ele>504</ele>
        <time>2012-11-24T04:01:49Z</time>
      </trkpt>
      <trkpt lat="46.05488" lon="3.53849">
        <ele>502</ele>
        <time>2012-11-24T04:01:52Z</time>
      </trkpt>
      <trkpt lat="46.0551" lon="3.53864">
        <ele>499</ele>
        <time>2012-11-24T04:01:55Z</time>
      </trkpt>
      <trkpt lat="46.05522" lon="3.53884">
        <ele>498</ele>
        <time>2012-11-24T04:01:57Z</time>
      </trkpt>
      <trkpt lat="46.05517" lon="3.53918">
        <ele>499</ele>
        <time>2012-11-24T04:02:03Z</time>
      </trkpt>
      <trkpt lat="46.05483" lon="3.54005">
        <ele>502</ele>
        <time>2012-11-24T04:02:19Z</time>
      </trkpt>
      <trkpt lat="46.05484" lon="3.54025">
        <ele>500</ele>
        <time>2012-11-24T04:02:21Z</time>
      </trkpt>
      <trkpt lat="46.05492" lon="3.54043">
        <ele>499</ele>
        <time>2012-11-24T04:02:23Z</time>
      </trkpt>
      <trkpt lat="46.05501" lon="3.5405">
        <ele>498</ele>
        <time>2012-11-24T04:02:25Z</time>
      </trkpt>
      <trkpt lat="46.05517" lon="3.54048">
        <ele>496</ele>
        <time>2012-11-24T04:02:27Z</time>
      </trkpt>
      <trkpt lat="46.0554" lon="3.54026">
        <ele>493</ele>
        <time>2012-11-24T04:02:30Z</time>
      </trkpt>
      <trkpt lat="46.05556" lon="3.5402">
        <ele>491</ele>
        <time>2012-11-24T04:02:33Z</time>
      </trkpt>
      <trkpt lat="46.05594" lon="3.54026">
        <ele>488</ele>
        <time>2012-11-24T04:02:38Z</time>
      </trkpt>
      <trkpt lat="46.05635" lon="3.54042">
        <ele>486</ele>
        <time>2012-11-24T04:02:43Z</time>
      </trkpt>
      <trkpt lat="46.05727" lon="3.54153">
        <ele>484</ele>
        <time>2012-11-24T04:02:59Z</time>
      </trkpt>
      <trkpt lat="46.05748" lon="3.54189">
        <ele>484</ele>
        <time>2012-11-24T04:03:05Z</time>
      </trkpt>
      <trkpt lat="46.0576" lon="3.54219">
        <ele>485</ele>
        <time>2012-11-24T04:03:10Z</time>
      </trkpt>
      <trkpt lat="46.05771" lon="3.54288">
        <ele>486</ele>
        <time>2012-11-24T04:03:18Z</time>
      </trkpt>
      <trkpt lat="46.05774" lon="3.54409">
        <ele>488</ele>
        <time>2012-11-24T04:03:35Z</time>
      </trkpt>
      <trkpt lat="46.05789" lon="3.54461">
        <ele>489</ele>
        <time>2012-11-24T04:03:42Z</time>
      </trkpt>
      <trkpt lat="46.05793" lon="3.54493">
        <ele>491</ele>
        <time>2012-11-24T04:03:51Z</time>
      </trkpt>
      <trkpt lat="46.05785" lon="3.54534">
        <ele>494</ele>
        <time>2012-11-24T04:04:03Z</time>
      </trkpt>
      <trkpt lat="46.05764" lon="3.54577">
        <ele>499</ele>
        <time>2012-11-24T04:04:18Z</time>
      </trkpt>
      <trkpt lat="46.0576" lon="3.54601">
        <ele>501</ele>
        <time>2012-11-24T04:04:25Z</time>
      </trkpt>
      <trkpt lat="46.05761" lon="3.54627">
        <ele>500</ele>
        <time>2012-11-24T04:04:27Z</time>
      </trkpt>
      <trkpt lat="46.05767" lon="3.54675">
        <ele>498</ele>
        <time>2012-11-24T04:04:32Z</time>
      </trkpt>
      <trkpt lat="46.0579" lon="3.54732">
        <ele>497</ele>
        <time>2012-11-24T04:04:38Z</time>
      </trkpt>
      <trkpt lat="46.05779" lon="3.54789">
        <ele>496</ele>
        <time>2012-11-24T04:04:43Z</time>
      </trkpt>
      <trkpt lat="46.05809" lon="3.5487">
        <ele>495</ele>
        <time>2012-11-24T04:04:52Z</time>
      </trkpt>
      <trkpt lat="46.05829" lon="3.54911">
        <ele>491</ele>
        <time>2012-11-24T04:04:57Z</time>
      </trkpt>
      <trkpt lat="46.05844" lon="3.54928">
        <ele>489</ele>
        <time>2012-11-24T04:04:59Z</time>
      </trkpt>
      <trkpt lat="46.05883" lon="3.54944">
        <ele>486</ele>
        <time>2012-11-24T04:05:05Z</time>
      </trkpt>
      <trkpt lat="46.05918" lon="3.54948">
        <ele>481</ele>
        <time>2012-11-24T04:05:09Z</time>
      </trkpt>
      <trkpt lat="46.05976" lon="3.54964">
        <ele>475</ele>
        <time>2012-11-24T04:05:17Z</time>
      </trkpt>
      <trkpt lat="46.05994" lon="3.54973">
        <ele>473</ele>
        <time>2012-11-24T04:05:20Z</time>
      </trkpt>
      <trkpt lat="46.06001" lon="3.54982">
        <ele>472</ele>
        <time>2012-11-24T04:05:21Z</time>
      </trkpt>
      <trkpt lat="46.06016" lon="3.55023">
        <ele>468</ele>
        <time>2012-11-24T04:05:25Z</time>
      </trkpt>
      <trkpt lat="46.06041" lon="3.55128">
        <ele>461</ele>
        <time>2012-11-24T04:05:36Z</time>
      </trkpt>
      <trkpt lat="46.06061" lon="3.55177">
        <ele>456</ele>
        <time>2012-11-24T04:05:41Z</time>
      </trkpt>
      <trkpt lat="46.06127" lon="3.55268">
        <ele>445</ele>
        <time>2012-11-24T04:05:53Z</time>
      </trkpt>
      <trkpt lat="46.06153" lon="3.55326">
        <ele>437</ele>
        <time>2012-11-24T04:05:59Z</time>
      </trkpt>
      <trkpt lat="46.06213" lon="3.55418">
        <ele>424</ele>
        <time>2012-11-24T04:06:11Z</time>
      </trkpt>
      <trkpt lat="46.06353" lon="3.55564">
        <ele>420</ele>
        <time>2012-11-24T04:06:34Z</time>
      </trkpt>
      <trkpt lat="46.06392" lon="3.55656">
        <ele>420</ele>
        <time>2012-11-24T04:06:46Z</time>
      </trkpt>
      <trkpt lat="46.06405" lon="3.55724">
        <ele>421</ele>
        <time>2012-11-24T04:06:53Z</time>
      </trkpt>
      <trkpt lat="46.06414" lon="3.55735">
        <ele>420</ele>
        <time>2012-11-24T04:06:55Z</time>
      </trkpt>
      <trkpt lat="46.06415" lon="3.55754">
        <ele>419</ele>
        <time>2012-11-24T04:06:56Z</time>
      </trkpt>
      <trkpt lat="46.0643" lon="3.55812">
        <ele>416</ele>
        <time>2012-11-24T04:07:02Z</time>
      </trkpt>
      <trkpt lat="46.06438" lon="3.55832">
        <ele>415</ele>
        <time>2012-11-24T04:07:04Z</time>
      </trkpt>
      <trkpt lat="46.0646" lon="3.55861">
        <ele>414</ele>
        <time>2012-11-24T04:07:08Z</time>
      </trkpt>
      <trkpt lat="46.06495" lon="3.55895">
        <ele>405</ele>
        <time>2012-11-24T04:07:14Z</time>
      </trkpt>
      <trkpt lat="46.06546" lon="3.55962">
        <ele>391</ele>
        <time>2012-11-24T04:07:23Z</time>
      </trkpt>
      <trkpt lat="46.06589" lon="3.5597">
        <ele>383</ele>
        <time>2012-11-24T04:07:29Z</time>
      </trkpt>
      <trkpt lat="46.06607" lon="3.55982">
        <ele>380</ele>
        <time>2012-11-24T04:07:32Z</time>
      </trkpt>
    </trkseg>
  </trk>
</gpx>